<?xml version="1.0" encoding="UTF-8" standalone="no" ?>
<gpx xmlns="http://www.topografix.com/GPX/1/1" xmlns:xsi="http://www.w3.org/2001/XMLSchema-instance" xsi:schemaLocation="http://www.topografix.com/GPX/1/1 http://www.topografix.com/GPX/1/1/gpx.xsd" version="1.1" creator="VisuGPX - https://www.visugpx.com">
  <metadata>
    <name>Tête de Douard</name>
    <desc><![CDATA[Petite randonnée sympathique et pas difficile du tout.]]></desc>
  </metadata>
  <trk>
    <name><![CDATA[ACTIVE LOG 001]]></name>
    <trkseg>
      <trkpt lat="43.27346" lon="5.6383">
        <ele>128.47338867188</ele>
        <time>2019-02-17T14:05:05Z</time>
      </trkpt>
      <trkpt lat="43.27348" lon="5.63831">
        <ele>108.28564453125</ele>
        <time>2019-02-17T14:05:08Z</time>
      </trkpt>
      <trkpt lat="43.27349" lon="5.63833">
        <ele>113.09228515625</ele>
        <time>2019-02-17T14:05:14Z</time>
      </trkpt>
      <trkpt lat="43.27344" lon="5.63836">
        <ele>117.89880371094</ele>
        <time>2019-02-17T14:05:21Z</time>
      </trkpt>
      <trkpt lat="43.27342" lon="5.63837">
        <ele>116.9375</ele>
        <time>2019-02-17T14:05:24Z</time>
      </trkpt>
      <trkpt lat="43.27335" lon="5.6384">
        <ele>115.97619628906</ele>
        <time>2019-02-17T14:05:33Z</time>
      </trkpt>
      <trkpt lat="43.27326" lon="5.63844">
        <ele>116.45678710938</ele>
        <time>2019-02-17T14:05:44Z</time>
      </trkpt>
      <trkpt lat="43.2731" lon="5.63849">
        <ele>118.37939453125</ele>
        <time>2019-02-17T14:06:01Z</time>
      </trkpt>
      <trkpt lat="43.27308" lon="5.63849">
        <ele>118.86010742188</ele>
        <time>2019-02-17T14:06:03Z</time>
      </trkpt>
      <trkpt lat="43.27304" lon="5.6385">
        <ele>118.86010742188</ele>
        <time>2019-02-17T14:06:07Z</time>
      </trkpt>
      <trkpt lat="43.27294" lon="5.63855">
        <ele>115.49560546875</ele>
        <time>2019-02-17T14:06:22Z</time>
      </trkpt>
      <trkpt lat="43.27276" lon="5.63847">
        <ele>115.97619628906</ele>
        <time>2019-02-17T14:06:48Z</time>
      </trkpt>
      <trkpt lat="43.27269" lon="5.63849">
        <ele>114.5341796875</ele>
        <time>2019-02-17T14:06:53Z</time>
      </trkpt>
      <trkpt lat="43.2725" lon="5.63844">
        <ele>118.37939453125</ele>
        <time>2019-02-17T14:07:11Z</time>
      </trkpt>
      <trkpt lat="43.2724" lon="5.63836">
        <ele>115.97619628906</ele>
        <time>2019-02-17T14:07:23Z</time>
      </trkpt>
      <trkpt lat="43.27226" lon="5.63828">
        <ele>116.9375</ele>
        <time>2019-02-17T14:07:33Z</time>
      </trkpt>
      <trkpt lat="43.27215" lon="5.6382">
        <ele>118.37939453125</ele>
        <time>2019-02-17T14:07:45Z</time>
      </trkpt>
      <trkpt lat="43.27212" lon="5.63816">
        <ele>119.3408203125</ele>
        <time>2019-02-17T14:07:49Z</time>
      </trkpt>
      <trkpt lat="43.27211" lon="5.63813">
        <ele>119.3408203125</ele>
        <time>2019-02-17T14:07:51Z</time>
      </trkpt>
      <trkpt lat="43.27205" lon="5.63805">
        <ele>121.26354980469</ele>
        <time>2019-02-17T14:08:01Z</time>
      </trkpt>
      <trkpt lat="43.272" lon="5.63803">
        <ele>121.744140625</ele>
        <time>2019-02-17T14:08:06Z</time>
      </trkpt>
      <trkpt lat="43.272" lon="5.63811">
        <ele>122.70544433594</ele>
        <time>2019-02-17T14:08:13Z</time>
      </trkpt>
      <trkpt lat="43.272" lon="5.63816">
        <ele>122.70544433594</ele>
        <time>2019-02-17T14:08:16Z</time>
      </trkpt>
      <trkpt lat="43.272" lon="5.63821">
        <ele>123.18615722656</ele>
        <time>2019-02-17T14:08:20Z</time>
      </trkpt>
      <trkpt lat="43.27201" lon="5.63823">
        <ele>123.18615722656</ele>
        <time>2019-02-17T14:08:22Z</time>
      </trkpt>
      <trkpt lat="43.27219" lon="5.63837">
        <ele>123.18615722656</ele>
        <time>2019-02-17T14:08:36Z</time>
      </trkpt>
      <trkpt lat="43.27221" lon="5.6384">
        <ele>123.18615722656</ele>
        <time>2019-02-17T14:08:38Z</time>
      </trkpt>
      <trkpt lat="43.27222" lon="5.63849">
        <ele>121.744140625</ele>
        <time>2019-02-17T14:08:51Z</time>
      </trkpt>
      <trkpt lat="43.27222" lon="5.63852">
        <ele>121.744140625</ele>
        <time>2019-02-17T14:08:53Z</time>
      </trkpt>
      <trkpt lat="43.27231" lon="5.63854">
        <ele>122.22473144531</ele>
        <time>2019-02-17T14:08:58Z</time>
      </trkpt>
      <trkpt lat="43.27233" lon="5.63855">
        <ele>121.26354980469</ele>
        <time>2019-02-17T14:09:00Z</time>
      </trkpt>
      <trkpt lat="43.27237" lon="5.63859">
        <ele>122.22473144531</ele>
        <time>2019-02-17T14:09:05Z</time>
      </trkpt>
      <trkpt lat="43.27241" lon="5.63862">
        <ele>124.62805175781</ele>
        <time>2019-02-17T14:09:08Z</time>
      </trkpt>
      <trkpt lat="43.27245" lon="5.63866">
        <ele>126.06994628906</ele>
        <time>2019-02-17T14:09:12Z</time>
      </trkpt>
      <trkpt lat="43.27247" lon="5.63867">
        <ele>126.06994628906</ele>
        <time>2019-02-17T14:09:14Z</time>
      </trkpt>
      <trkpt lat="43.27258" lon="5.63876">
        <ele>128.47338867188</ele>
        <time>2019-02-17T14:09:25Z</time>
      </trkpt>
      <trkpt lat="43.27269" lon="5.63882">
        <ele>130.39599609375</ele>
        <time>2019-02-17T14:09:32Z</time>
      </trkpt>
      <trkpt lat="43.27273" lon="5.63889">
        <ele>132.79931640625</ele>
        <time>2019-02-17T14:09:39Z</time>
      </trkpt>
      <trkpt lat="43.27276" lon="5.63905">
        <ele>135.68310546875</ele>
        <time>2019-02-17T14:09:49Z</time>
      </trkpt>
      <trkpt lat="43.27267" lon="5.63915">
        <ele>137.60583496094</ele>
        <time>2019-02-17T14:10:05Z</time>
      </trkpt>
      <trkpt lat="43.27265" lon="5.63914">
        <ele>138.08654785156</ele>
        <time>2019-02-17T14:10:07Z</time>
      </trkpt>
      <trkpt lat="43.27262" lon="5.63905">
        <ele>138.56726074219</ele>
        <time>2019-02-17T14:10:12Z</time>
      </trkpt>
      <trkpt lat="43.27258" lon="5.63906">
        <ele>138.08654785156</ele>
        <time>2019-02-17T14:10:15Z</time>
      </trkpt>
      <trkpt lat="43.27251" lon="5.639">
        <ele>139.52844238281</ele>
        <time>2019-02-17T14:10:22Z</time>
      </trkpt>
      <trkpt lat="43.2725" lon="5.63901">
        <ele>140.00915527344</ele>
        <time>2019-02-17T14:10:24Z</time>
      </trkpt>
      <trkpt lat="43.27237" lon="5.63896">
        <ele>143.85437011719</ele>
        <time>2019-02-17T14:10:33Z</time>
      </trkpt>
      <trkpt lat="43.27225" lon="5.63889">
        <ele>145.77709960938</ele>
        <time>2019-02-17T14:10:45Z</time>
      </trkpt>
      <trkpt lat="43.2721" lon="5.63878">
        <ele>148.66101074219</ele>
        <time>2019-02-17T14:11:01Z</time>
      </trkpt>
      <trkpt lat="43.27203" lon="5.63866">
        <ele>150.58361816406</ele>
        <time>2019-02-17T14:11:10Z</time>
      </trkpt>
      <trkpt lat="43.27194" lon="5.63875">
        <ele>153.94836425781</ele>
        <time>2019-02-17T14:11:18Z</time>
      </trkpt>
      <trkpt lat="43.27199" lon="5.63884">
        <ele>155.39025878906</ele>
        <time>2019-02-17T14:11:21Z</time>
      </trkpt>
      <trkpt lat="43.272" lon="5.63886">
        <ele>156.3515625</ele>
        <time>2019-02-17T14:11:23Z</time>
      </trkpt>
      <trkpt lat="43.27202" lon="5.63887">
        <ele>156.83215332031</ele>
        <time>2019-02-17T14:11:25Z</time>
      </trkpt>
      <trkpt lat="43.27203" lon="5.63888">
        <ele>157.79357910156</ele>
        <time>2019-02-17T14:11:27Z</time>
      </trkpt>
      <trkpt lat="43.27206" lon="5.63891">
        <ele>158.27416992188</ele>
        <time>2019-02-17T14:11:30Z</time>
      </trkpt>
      <trkpt lat="43.27215" lon="5.63899">
        <ele>160.67749023438</ele>
        <time>2019-02-17T14:11:38Z</time>
      </trkpt>
      <trkpt lat="43.27224" lon="5.63905">
        <ele>163.08081054688</ele>
        <time>2019-02-17T14:11:44Z</time>
      </trkpt>
      <trkpt lat="43.27232" lon="5.63916">
        <ele>166.4453125</ele>
        <time>2019-02-17T14:11:55Z</time>
      </trkpt>
      <trkpt lat="43.27237" lon="5.63917">
        <ele>167.40673828125</ele>
        <time>2019-02-17T14:11:58Z</time>
      </trkpt>
      <trkpt lat="43.27239" lon="5.63922">
        <ele>168.36804199219</ele>
        <time>2019-02-17T14:12:01Z</time>
      </trkpt>
      <trkpt lat="43.27239" lon="5.63927">
        <ele>170.77136230469</ele>
        <time>2019-02-17T14:12:08Z</time>
      </trkpt>
      <trkpt lat="43.27227" lon="5.63917">
        <ele>173.6552734375</ele>
        <time>2019-02-17T14:12:24Z</time>
      </trkpt>
      <trkpt lat="43.27222" lon="5.63915">
        <ele>174.61657714844</ele>
        <time>2019-02-17T14:12:28Z</time>
      </trkpt>
      <trkpt lat="43.27201" lon="5.63915">
        <ele>177.50061035156</ele>
        <time>2019-02-17T14:12:47Z</time>
      </trkpt>
      <trkpt lat="43.27201" lon="5.63919">
        <ele>177.98120117188</ele>
        <time>2019-02-17T14:12:49Z</time>
      </trkpt>
      <trkpt lat="43.27215" lon="5.6394">
        <ele>179.90380859375</ele>
        <time>2019-02-17T14:13:00Z</time>
      </trkpt>
      <trkpt lat="43.27218" lon="5.63943">
        <ele>179.90380859375</ele>
        <time>2019-02-17T14:13:04Z</time>
      </trkpt>
      <trkpt lat="43.27218" lon="5.63945">
        <ele>179.42321777344</ele>
        <time>2019-02-17T14:13:06Z</time>
      </trkpt>
      <trkpt lat="43.2722" lon="5.6395">
        <ele>178.94262695312</ele>
        <time>2019-02-17T14:13:10Z</time>
      </trkpt>
      <trkpt lat="43.27227" lon="5.6396">
        <ele>179.42321777344</ele>
        <time>2019-02-17T14:13:23Z</time>
      </trkpt>
      <trkpt lat="43.27227" lon="5.63974">
        <ele>181.34582519531</ele>
        <time>2019-02-17T14:13:38Z</time>
      </trkpt>
      <trkpt lat="43.2722" lon="5.63985">
        <ele>180.865234375</ele>
        <time>2019-02-17T14:13:43Z</time>
      </trkpt>
      <trkpt lat="43.27218" lon="5.63986">
        <ele>180.38452148438</ele>
        <time>2019-02-17T14:13:45Z</time>
      </trkpt>
      <trkpt lat="43.27208" lon="5.63997">
        <ele>177.50061035156</ele>
        <time>2019-02-17T14:13:58Z</time>
      </trkpt>
      <trkpt lat="43.27191" lon="5.64011">
        <ele>170.77136230469</ele>
        <time>2019-02-17T14:14:14Z</time>
      </trkpt>
      <trkpt lat="43.27187" lon="5.64013">
        <ele>171.73266601562</ele>
        <time>2019-02-17T14:14:19Z</time>
      </trkpt>
      <trkpt lat="43.27183" lon="5.64022">
        <ele>172.69396972656</ele>
        <time>2019-02-17T14:14:25Z</time>
      </trkpt>
      <trkpt lat="43.2718" lon="5.64032">
        <ele>171.73266601562</ele>
        <time>2019-02-17T14:14:31Z</time>
      </trkpt>
      <trkpt lat="43.27171" lon="5.64044">
        <ele>173.17468261719</ele>
        <time>2019-02-17T14:14:44Z</time>
      </trkpt>
      <trkpt lat="43.27162" lon="5.64047">
        <ele>174.61657714844</ele>
        <time>2019-02-17T14:14:53Z</time>
      </trkpt>
      <trkpt lat="43.2716" lon="5.64045">
        <ele>174.61657714844</ele>
        <time>2019-02-17T14:14:55Z</time>
      </trkpt>
      <trkpt lat="43.2716" lon="5.64032">
        <ele>170.77136230469</ele>
        <time>2019-02-17T14:15:07Z</time>
      </trkpt>
      <trkpt lat="43.27163" lon="5.64023">
        <ele>169.32946777344</ele>
        <time>2019-02-17T14:15:12Z</time>
      </trkpt>
      <trkpt lat="43.27163" lon="5.64005">
        <ele>165.96472167969</ele>
        <time>2019-02-17T14:15:26Z</time>
      </trkpt>
      <trkpt lat="43.27161" lon="5.64011">
        <ele>165.96472167969</ele>
        <time>2019-02-17T14:15:34Z</time>
      </trkpt>
      <trkpt lat="43.27157" lon="5.64032">
        <ele>165.96472167969</ele>
        <time>2019-02-17T14:15:48Z</time>
      </trkpt>
      <trkpt lat="43.27155" lon="5.64043">
        <ele>165.48413085938</ele>
        <time>2019-02-17T14:15:55Z</time>
      </trkpt>
      <trkpt lat="43.27153" lon="5.64051">
        <ele>164.52270507812</ele>
        <time>2019-02-17T14:15:59Z</time>
      </trkpt>
      <trkpt lat="43.27153" lon="5.64058">
        <ele>163.5615234375</ele>
        <time>2019-02-17T14:16:04Z</time>
      </trkpt>
      <trkpt lat="43.2715" lon="5.64059">
        <ele>165.00341796875</ele>
        <time>2019-02-17T14:16:09Z</time>
      </trkpt>
      <trkpt lat="43.27146" lon="5.64048">
        <ele>168.84875488281</ele>
        <time>2019-02-17T14:16:19Z</time>
      </trkpt>
      <trkpt lat="43.27141" lon="5.64043">
        <ele>170.29064941406</ele>
        <time>2019-02-17T14:16:30Z</time>
      </trkpt>
      <trkpt lat="43.27139" lon="5.64041">
        <ele>170.77136230469</ele>
        <time>2019-02-17T14:16:35Z</time>
      </trkpt>
      <trkpt lat="43.27127" lon="5.64031">
        <ele>172.21325683594</ele>
        <time>2019-02-17T14:16:51Z</time>
      </trkpt>
      <trkpt lat="43.2712" lon="5.64019">
        <ele>174.61657714844</ele>
        <time>2019-02-17T14:17:07Z</time>
      </trkpt>
      <trkpt lat="43.27105" lon="5.64014">
        <ele>177.98120117188</ele>
        <time>2019-02-17T14:17:26Z</time>
      </trkpt>
      <trkpt lat="43.27097" lon="5.64007">
        <ele>179.90380859375</ele>
        <time>2019-02-17T14:17:37Z</time>
      </trkpt>
      <trkpt lat="43.27093" lon="5.64001">
        <ele>179.90380859375</ele>
        <time>2019-02-17T14:17:44Z</time>
      </trkpt>
      <trkpt lat="43.27091" lon="5.63989">
        <ele>181.82641601562</ele>
        <time>2019-02-17T14:17:58Z</time>
      </trkpt>
      <trkpt lat="43.27093" lon="5.63968">
        <ele>182.78784179688</ele>
        <time>2019-02-17T14:18:08Z</time>
      </trkpt>
      <trkpt lat="43.27095" lon="5.63954">
        <ele>182.78784179688</ele>
        <time>2019-02-17T14:18:20Z</time>
      </trkpt>
      <trkpt lat="43.27094" lon="5.63948">
        <ele>185.19116210938</ele>
        <time>2019-02-17T14:18:36Z</time>
      </trkpt>
      <trkpt lat="43.27093" lon="5.63946">
        <ele>185.19116210938</ele>
        <time>2019-02-17T14:18:38Z</time>
      </trkpt>
      <trkpt lat="43.27085" lon="5.63929">
        <ele>186.15246582031</ele>
        <time>2019-02-17T14:18:55Z</time>
      </trkpt>
      <trkpt lat="43.27075" lon="5.63917">
        <ele>188.55578613281</ele>
        <time>2019-02-17T14:19:08Z</time>
      </trkpt>
      <trkpt lat="43.27066" lon="5.6391">
        <ele>191.43957519531</ele>
        <time>2019-02-17T14:19:23Z</time>
      </trkpt>
      <trkpt lat="43.27065" lon="5.63911">
        <ele>191.43957519531</ele>
        <time>2019-02-17T14:19:25Z</time>
      </trkpt>
      <trkpt lat="43.2706" lon="5.63918">
        <ele>192.88171386719</ele>
        <time>2019-02-17T14:19:33Z</time>
      </trkpt>
      <trkpt lat="43.2706" lon="5.6392">
        <ele>193.3623046875</ele>
        <time>2019-02-17T14:19:35Z</time>
      </trkpt>
      <trkpt lat="43.27049" lon="5.63936">
        <ele>196.24633789062</ele>
        <time>2019-02-17T14:19:50Z</time>
      </trkpt>
      <trkpt lat="43.27042" lon="5.63939">
        <ele>196.72692871094</ele>
        <time>2019-02-17T14:20:02Z</time>
      </trkpt>
      <trkpt lat="43.27041" lon="5.6394">
        <ele>197.20751953125</ele>
        <time>2019-02-17T14:20:04Z</time>
      </trkpt>
      <trkpt lat="43.2703" lon="5.63945">
        <ele>200.572265625</ele>
        <time>2019-02-17T14:20:15Z</time>
      </trkpt>
      <trkpt lat="43.27029" lon="5.63946">
        <ele>201.53356933594</ele>
        <time>2019-02-17T14:20:20Z</time>
      </trkpt>
      <trkpt lat="43.27021" lon="5.63957">
        <ele>200.572265625</ele>
        <time>2019-02-17T14:20:34Z</time>
      </trkpt>
      <trkpt lat="43.27021" lon="5.63963">
        <ele>201.53356933594</ele>
        <time>2019-02-17T14:20:38Z</time>
      </trkpt>
      <trkpt lat="43.27015" lon="5.63971">
        <ele>204.41748046875</ele>
        <time>2019-02-17T14:20:50Z</time>
      </trkpt>
      <trkpt lat="43.27011" lon="5.63978">
        <ele>203.93688964844</ele>
        <time>2019-02-17T14:20:57Z</time>
      </trkpt>
      <trkpt lat="43.27003" lon="5.63978">
        <ele>206.82067871094</ele>
        <time>2019-02-17T14:21:09Z</time>
      </trkpt>
      <trkpt lat="43.26993" lon="5.63975">
        <ele>207.78210449219</ele>
        <time>2019-02-17T14:21:23Z</time>
      </trkpt>
      <trkpt lat="43.26992" lon="5.63974">
        <ele>207.78210449219</ele>
        <time>2019-02-17T14:21:25Z</time>
      </trkpt>
      <trkpt lat="43.26982" lon="5.63975">
        <ele>207.30139160156</ele>
        <time>2019-02-17T14:21:33Z</time>
      </trkpt>
      <trkpt lat="43.26976" lon="5.63975">
        <ele>205.85949707031</ele>
        <time>2019-02-17T14:21:43Z</time>
      </trkpt>
      <trkpt lat="43.26973" lon="5.63975">
        <ele>206.82067871094</ele>
        <time>2019-02-17T14:21:46Z</time>
      </trkpt>
      <trkpt lat="43.2697" lon="5.63966">
        <ele>209.22412109375</ele>
        <time>2019-02-17T14:21:58Z</time>
      </trkpt>
      <trkpt lat="43.26965" lon="5.63963">
        <ele>211.14672851562</ele>
        <time>2019-02-17T14:22:10Z</time>
      </trkpt>
      <trkpt lat="43.26956" lon="5.6396">
        <ele>212.10803222656</ele>
        <time>2019-02-17T14:22:18Z</time>
      </trkpt>
      <trkpt lat="43.26948" lon="5.63958">
        <ele>212.58862304688</ele>
        <time>2019-02-17T14:22:27Z</time>
      </trkpt>
      <trkpt lat="43.26945" lon="5.6396">
        <ele>214.51123046875</ele>
        <time>2019-02-17T14:22:42Z</time>
      </trkpt>
      <trkpt lat="43.26946" lon="5.6396">
        <ele>213.0693359375</ele>
        <time>2019-02-17T14:23:02Z</time>
      </trkpt>
      <trkpt lat="43.26947" lon="5.63959">
        <ele>211.14672851562</ele>
        <time>2019-02-17T14:23:36Z</time>
      </trkpt>
      <trkpt lat="43.26939" lon="5.63951">
        <ele>212.58862304688</ele>
        <time>2019-02-17T14:23:48Z</time>
      </trkpt>
      <trkpt lat="43.26931" lon="5.63948">
        <ele>213.0693359375</ele>
        <time>2019-02-17T14:23:53Z</time>
      </trkpt>
      <trkpt lat="43.26928" lon="5.6395">
        <ele>214.51123046875</ele>
        <time>2019-02-17T14:24:01Z</time>
      </trkpt>
      <trkpt lat="43.26924" lon="5.63949">
        <ele>217.39538574219</ele>
        <time>2019-02-17T14:24:13Z</time>
      </trkpt>
      <trkpt lat="43.26921" lon="5.63948">
        <ele>220.75988769531</ele>
        <time>2019-02-17T14:24:27Z</time>
      </trkpt>
      <trkpt lat="43.26916" lon="5.63944">
        <ele>224.12451171875</ele>
        <time>2019-02-17T14:24:44Z</time>
      </trkpt>
      <trkpt lat="43.26913" lon="5.6394">
        <ele>226.04711914062</ele>
        <time>2019-02-17T14:24:58Z</time>
      </trkpt>
      <trkpt lat="43.26904" lon="5.63936">
        <ele>228.93115234375</ele>
        <time>2019-02-17T14:25:11Z</time>
      </trkpt>
      <trkpt lat="43.26901" lon="5.6393">
        <ele>230.85375976562</ele>
        <time>2019-02-17T14:25:24Z</time>
      </trkpt>
      <trkpt lat="43.26899" lon="5.63927">
        <ele>231.33435058594</ele>
        <time>2019-02-17T14:25:27Z</time>
      </trkpt>
      <trkpt lat="43.26895" lon="5.63917">
        <ele>233.73767089844</ele>
        <time>2019-02-17T14:25:43Z</time>
      </trkpt>
      <trkpt lat="43.26892" lon="5.63903">
        <ele>236.14099121094</ele>
        <time>2019-02-17T14:25:56Z</time>
      </trkpt>
      <trkpt lat="43.26881" lon="5.63899">
        <ele>237.58288574219</ele>
        <time>2019-02-17T14:26:08Z</time>
      </trkpt>
      <trkpt lat="43.26875" lon="5.63894">
        <ele>239.98620605469</ele>
        <time>2019-02-17T14:26:19Z</time>
      </trkpt>
      <trkpt lat="43.26875" lon="5.6389">
        <ele>240.46704101562</ele>
        <time>2019-02-17T14:26:22Z</time>
      </trkpt>
      <trkpt lat="43.26871" lon="5.63883">
        <ele>241.42822265625</ele>
        <time>2019-02-17T14:26:34Z</time>
      </trkpt>
      <trkpt lat="43.2686" lon="5.63873">
        <ele>243.83154296875</ele>
        <time>2019-02-17T14:26:46Z</time>
      </trkpt>
      <trkpt lat="43.26853" lon="5.63871">
        <ele>243.83154296875</ele>
        <time>2019-02-17T14:26:51Z</time>
      </trkpt>
      <trkpt lat="43.26849" lon="5.63854">
        <ele>242.3896484375</ele>
        <time>2019-02-17T14:27:04Z</time>
      </trkpt>
      <trkpt lat="43.26846" lon="5.63837">
        <ele>242.87023925781</ele>
        <time>2019-02-17T14:27:18Z</time>
      </trkpt>
      <trkpt lat="43.26847" lon="5.63814">
        <ele>242.3896484375</ele>
        <time>2019-02-17T14:27:33Z</time>
      </trkpt>
      <trkpt lat="43.26846" lon="5.63805">
        <ele>240.46704101562</ele>
        <time>2019-02-17T14:27:45Z</time>
      </trkpt>
      <trkpt lat="43.26844" lon="5.63794">
        <ele>240.46704101562</ele>
        <time>2019-02-17T14:27:58Z</time>
      </trkpt>
      <trkpt lat="43.26839" lon="5.63784">
        <ele>241.90893554688</ele>
        <time>2019-02-17T14:28:12Z</time>
      </trkpt>
      <trkpt lat="43.26836" lon="5.63768">
        <ele>242.87023925781</ele>
        <time>2019-02-17T14:28:27Z</time>
      </trkpt>
      <trkpt lat="43.26833" lon="5.6376">
        <ele>243.35083007812</ele>
        <time>2019-02-17T14:28:39Z</time>
      </trkpt>
      <trkpt lat="43.26826" lon="5.6375">
        <ele>245.75415039062</ele>
        <time>2019-02-17T14:28:49Z</time>
      </trkpt>
      <trkpt lat="43.26823" lon="5.63747">
        <ele>247.19604492188</ele>
        <time>2019-02-17T14:28:58Z</time>
      </trkpt>
      <trkpt lat="43.26821" lon="5.63745">
        <ele>246.71545410156</ele>
        <time>2019-02-17T14:29:00Z</time>
      </trkpt>
      <trkpt lat="43.26814" lon="5.6374">
        <ele>247.19604492188</ele>
        <time>2019-02-17T14:29:10Z</time>
      </trkpt>
      <trkpt lat="43.26813" lon="5.63736">
        <ele>248.15759277344</ele>
        <time>2019-02-17T14:29:25Z</time>
      </trkpt>
      <trkpt lat="43.26803" lon="5.63739">
        <ele>251.52209472656</ele>
        <time>2019-02-17T14:29:42Z</time>
      </trkpt>
      <trkpt lat="43.26802" lon="5.63738">
        <ele>251.52209472656</ele>
        <time>2019-02-17T14:29:44Z</time>
      </trkpt>
      <trkpt lat="43.26793" lon="5.63736">
        <ele>252.00280761719</ele>
        <time>2019-02-17T14:29:50Z</time>
      </trkpt>
      <trkpt lat="43.26787" lon="5.63731">
        <ele>254.40600585938</ele>
        <time>2019-02-17T14:29:58Z</time>
      </trkpt>
      <trkpt lat="43.26784" lon="5.6373">
        <ele>257.77075195312</ele>
        <time>2019-02-17T14:30:10Z</time>
      </trkpt>
      <trkpt lat="43.26783" lon="5.63724">
        <ele>257.77075195312</ele>
        <time>2019-02-17T14:30:13Z</time>
      </trkpt>
      <trkpt lat="43.26783" lon="5.63716">
        <ele>258.25134277344</ele>
        <time>2019-02-17T14:30:17Z</time>
      </trkpt>
      <trkpt lat="43.26785" lon="5.637">
        <ele>259.21264648438</ele>
        <time>2019-02-17T14:30:29Z</time>
      </trkpt>
      <trkpt lat="43.2678" lon="5.63691">
        <ele>260.65454101562</ele>
        <time>2019-02-17T14:30:40Z</time>
      </trkpt>
      <trkpt lat="43.26781" lon="5.63678">
        <ele>262.09655761719</ele>
        <time>2019-02-17T14:30:53Z</time>
      </trkpt>
      <trkpt lat="43.26782" lon="5.63673">
        <ele>263.53857421875</ele>
        <time>2019-02-17T14:30:57Z</time>
      </trkpt>
      <trkpt lat="43.26776" lon="5.63659">
        <ele>265.94189453125</ele>
        <time>2019-02-17T14:31:15Z</time>
      </trkpt>
      <trkpt lat="43.26772" lon="5.63647">
        <ele>268.82580566406</ele>
        <time>2019-02-17T14:31:30Z</time>
      </trkpt>
      <trkpt lat="43.2677" lon="5.6364">
        <ele>269.787109375</ele>
        <time>2019-02-17T14:31:35Z</time>
      </trkpt>
      <trkpt lat="43.26762" lon="5.63632">
        <ele>273.15185546875</ele>
        <time>2019-02-17T14:31:48Z</time>
      </trkpt>
      <trkpt lat="43.26761" lon="5.63622">
        <ele>276.03564453125</ele>
        <time>2019-02-17T14:32:03Z</time>
      </trkpt>
      <trkpt lat="43.2676" lon="5.63621">
        <ele>276.03564453125</ele>
        <time>2019-02-17T14:32:04Z</time>
      </trkpt>
      <trkpt lat="43.26758" lon="5.63614">
        <ele>276.51635742188</ele>
        <time>2019-02-17T14:32:08Z</time>
      </trkpt>
      <trkpt lat="43.26753" lon="5.63604">
        <ele>276.9970703125</ele>
        <time>2019-02-17T14:32:20Z</time>
      </trkpt>
      <trkpt lat="43.2675" lon="5.63604">
        <ele>277.95825195312</ele>
        <time>2019-02-17T14:32:31Z</time>
      </trkpt>
      <trkpt lat="43.2674" lon="5.63584">
        <ele>279.40026855469</ele>
        <time>2019-02-17T14:32:52Z</time>
      </trkpt>
      <trkpt lat="43.26736" lon="5.6357">
        <ele>281.80358886719</ele>
        <time>2019-02-17T14:33:05Z</time>
      </trkpt>
      <trkpt lat="43.26732" lon="5.63546">
        <ele>285.16821289062</ele>
        <time>2019-02-17T14:33:27Z</time>
      </trkpt>
      <trkpt lat="43.26722" lon="5.63536">
        <ele>289.97485351562</ele>
        <time>2019-02-17T14:33:43Z</time>
      </trkpt>
      <trkpt lat="43.26717" lon="5.63528">
        <ele>290.45556640625</ele>
        <time>2019-02-17T14:33:58Z</time>
      </trkpt>
      <trkpt lat="43.26703" lon="5.63503">
        <ele>289.97485351562</ele>
        <time>2019-02-17T14:34:26Z</time>
      </trkpt>
      <trkpt lat="43.26691" lon="5.63506">
        <ele>289.494140625</ele>
        <time>2019-02-17T14:34:47Z</time>
      </trkpt>
      <trkpt lat="43.26689" lon="5.63506">
        <ele>289.494140625</ele>
        <time>2019-02-17T14:34:51Z</time>
      </trkpt>
      <trkpt lat="43.26685" lon="5.63507">
        <ele>289.97485351562</ele>
        <time>2019-02-17T14:34:55Z</time>
      </trkpt>
      <trkpt lat="43.26686" lon="5.63503">
        <ele>293.82006835938</ele>
        <time>2019-02-17T14:35:11Z</time>
      </trkpt>
      <trkpt lat="43.26684" lon="5.63506">
        <ele>294.30078125</ele>
        <time>2019-02-17T14:35:22Z</time>
      </trkpt>
      <trkpt lat="43.26684" lon="5.63508">
        <ele>295.74267578125</ele>
        <time>2019-02-17T14:36:09Z</time>
      </trkpt>
      <trkpt lat="43.26684" lon="5.63509">
        <ele>296.22351074219</ele>
        <time>2019-02-17T14:36:19Z</time>
      </trkpt>
      <trkpt lat="43.26676" lon="5.63531">
        <ele>297.18469238281</ele>
        <time>2019-02-17T14:36:39Z</time>
      </trkpt>
      <trkpt lat="43.26672" lon="5.63546">
        <ele>295.26196289062</ele>
        <time>2019-02-17T14:36:53Z</time>
      </trkpt>
      <trkpt lat="43.26664" lon="5.63562">
        <ele>297.18469238281</ele>
        <time>2019-02-17T14:37:09Z</time>
      </trkpt>
      <trkpt lat="43.26662" lon="5.63564">
        <ele>297.18469238281</ele>
        <time>2019-02-17T14:37:11Z</time>
      </trkpt>
      <trkpt lat="43.2665" lon="5.63574">
        <ele>299.10729980469</ele>
        <time>2019-02-17T14:37:31Z</time>
      </trkpt>
      <trkpt lat="43.26646" lon="5.63575">
        <ele>300.54931640625</ele>
        <time>2019-02-17T14:37:49Z</time>
      </trkpt>
      <trkpt lat="43.26639" lon="5.63573">
        <ele>302.47192382812</ele>
        <time>2019-02-17T14:38:00Z</time>
      </trkpt>
      <trkpt lat="43.26636" lon="5.63572">
        <ele>301.99133300781</ele>
        <time>2019-02-17T14:38:03Z</time>
      </trkpt>
      <trkpt lat="43.26632" lon="5.63579">
        <ele>301.99133300781</ele>
        <time>2019-02-17T14:38:07Z</time>
      </trkpt>
      <trkpt lat="43.26635" lon="5.63576">
        <ele>301.02990722656</ele>
        <time>2019-02-17T14:38:20Z</time>
      </trkpt>
      <trkpt lat="43.26647" lon="5.6357">
        <ele>300.54931640625</ele>
        <time>2019-02-17T14:38:40Z</time>
      </trkpt>
      <trkpt lat="43.2665" lon="5.63565">
        <ele>300.06872558594</ele>
        <time>2019-02-17T14:38:45Z</time>
      </trkpt>
      <trkpt lat="43.26653" lon="5.6356">
        <ele>299.58801269531</ele>
        <time>2019-02-17T14:39:07Z</time>
      </trkpt>
      <trkpt lat="43.26655" lon="5.63554">
        <ele>299.58801269531</ele>
        <time>2019-02-17T14:39:18Z</time>
      </trkpt>
      <trkpt lat="43.26658" lon="5.63546">
        <ele>301.51062011719</ele>
        <time>2019-02-17T14:39:32Z</time>
      </trkpt>
      <trkpt lat="43.26658" lon="5.6355">
        <ele>301.02990722656</ele>
        <time>2019-02-17T14:39:55Z</time>
      </trkpt>
      <trkpt lat="43.26657" lon="5.63551">
        <ele>300.54931640625</ele>
        <time>2019-02-17T14:40:00Z</time>
      </trkpt>
      <trkpt lat="43.26659" lon="5.63545">
        <ele>300.54931640625</ele>
        <time>2019-02-17T14:40:10Z</time>
      </trkpt>
      <trkpt lat="43.26655" lon="5.63557">
        <ele>300.54931640625</ele>
        <time>2019-02-17T14:40:17Z</time>
      </trkpt>
      <trkpt lat="43.26649" lon="5.63568">
        <ele>299.58801269531</ele>
        <time>2019-02-17T14:40:25Z</time>
      </trkpt>
      <trkpt lat="43.2664" lon="5.63582">
        <ele>298.14611816406</ele>
        <time>2019-02-17T14:40:36Z</time>
      </trkpt>
      <trkpt lat="43.26634" lon="5.6359">
        <ele>299.10729980469</ele>
        <time>2019-02-17T14:40:51Z</time>
      </trkpt>
      <trkpt lat="43.26631" lon="5.63597">
        <ele>298.62670898438</ele>
        <time>2019-02-17T14:40:54Z</time>
      </trkpt>
      <trkpt lat="43.26625" lon="5.63608">
        <ele>298.14611816406</ele>
        <time>2019-02-17T14:41:06Z</time>
      </trkpt>
      <trkpt lat="43.26625" lon="5.63609">
        <ele>299.58801269531</ele>
        <time>2019-02-17T14:41:19Z</time>
      </trkpt>
      <trkpt lat="43.26628" lon="5.63603">
        <ele>301.99133300781</ele>
        <time>2019-02-17T14:41:32Z</time>
      </trkpt>
      <trkpt lat="43.26643" lon="5.63579">
        <ele>303.43322753906</ele>
        <time>2019-02-17T14:41:53Z</time>
      </trkpt>
      <trkpt lat="43.26653" lon="5.63566">
        <ele>301.51062011719</ele>
        <time>2019-02-17T14:42:04Z</time>
      </trkpt>
      <trkpt lat="43.26659" lon="5.63548">
        <ele>301.99133300781</ele>
        <time>2019-02-17T14:42:15Z</time>
      </trkpt>
      <trkpt lat="43.2666" lon="5.63546">
        <ele>301.99133300781</ele>
        <time>2019-02-17T14:42:18Z</time>
      </trkpt>
      <trkpt lat="43.26663" lon="5.63531">
        <ele>300.54931640625</ele>
        <time>2019-02-17T14:42:30Z</time>
      </trkpt>
      <trkpt lat="43.26666" lon="5.6352">
        <ele>299.10729980469</ele>
        <time>2019-02-17T14:42:40Z</time>
      </trkpt>
      <trkpt lat="43.26667" lon="5.63518">
        <ele>299.10729980469</ele>
        <time>2019-02-17T14:42:42Z</time>
      </trkpt>
      <trkpt lat="43.26671" lon="5.63497">
        <ele>301.02990722656</ele>
        <time>2019-02-17T14:42:56Z</time>
      </trkpt>
      <trkpt lat="43.26676" lon="5.63479">
        <ele>304.39465332031</ele>
        <time>2019-02-17T14:43:11Z</time>
      </trkpt>
      <trkpt lat="43.26678" lon="5.6347">
        <ele>304.39465332031</ele>
        <time>2019-02-17T14:43:37Z</time>
      </trkpt>
      <trkpt lat="43.26683" lon="5.63454">
        <ele>304.39465332031</ele>
        <time>2019-02-17T14:43:54Z</time>
      </trkpt>
      <trkpt lat="43.26684" lon="5.6344">
        <ele>307.75927734375</ele>
        <time>2019-02-17T14:44:10Z</time>
      </trkpt>
      <trkpt lat="43.26687" lon="5.63427">
        <ele>309.201171875</ele>
        <time>2019-02-17T14:44:20Z</time>
      </trkpt>
      <trkpt lat="43.26686" lon="5.6341">
        <ele>310.64306640625</ele>
        <time>2019-02-17T14:44:35Z</time>
      </trkpt>
      <trkpt lat="43.26686" lon="5.6339">
        <ele>313.04650878906</ele>
        <time>2019-02-17T14:44:54Z</time>
      </trkpt>
      <trkpt lat="43.26686" lon="5.63389">
        <ele>313.52722167969</ele>
        <time>2019-02-17T14:44:55Z</time>
      </trkpt>
      <trkpt lat="43.26686" lon="5.63386">
        <ele>313.52722167969</ele>
        <time>2019-02-17T14:44:58Z</time>
      </trkpt>
      <trkpt lat="43.26685" lon="5.63372">
        <ele>312.08520507812</ele>
        <time>2019-02-17T14:45:07Z</time>
      </trkpt>
      <trkpt lat="43.26684" lon="5.63367">
        <ele>311.12377929688</ele>
        <time>2019-02-17T14:45:11Z</time>
      </trkpt>
      <trkpt lat="43.26685" lon="5.63356">
        <ele>309.201171875</ele>
        <time>2019-02-17T14:45:24Z</time>
      </trkpt>
      <trkpt lat="43.26683" lon="5.63349">
        <ele>308.72045898438</ele>
        <time>2019-02-17T14:45:31Z</time>
      </trkpt>
      <trkpt lat="43.26686" lon="5.63337">
        <ele>312.08520507812</ele>
        <time>2019-02-17T14:45:50Z</time>
      </trkpt>
      <trkpt lat="43.26687" lon="5.63322">
        <ele>316.89172363281</ele>
        <time>2019-02-17T14:46:07Z</time>
      </trkpt>
      <trkpt lat="43.26688" lon="5.63301">
        <ele>318.81433105469</ele>
        <time>2019-02-17T14:46:24Z</time>
      </trkpt>
      <trkpt lat="43.26688" lon="5.633">
        <ele>318.81433105469</ele>
        <time>2019-02-17T14:46:25Z</time>
      </trkpt>
      <trkpt lat="43.26687" lon="5.6329">
        <ele>319.77563476562</ele>
        <time>2019-02-17T14:46:34Z</time>
      </trkpt>
      <trkpt lat="43.26685" lon="5.63284">
        <ele>320.25634765625</ele>
        <time>2019-02-17T14:46:39Z</time>
      </trkpt>
      <trkpt lat="43.26684" lon="5.63279">
        <ele>320.73706054688</ele>
        <time>2019-02-17T14:46:42Z</time>
      </trkpt>
      <trkpt lat="43.26682" lon="5.63273">
        <ele>321.2177734375</ele>
        <time>2019-02-17T14:46:55Z</time>
      </trkpt>
      <trkpt lat="43.26683" lon="5.63273">
        <ele>320.73706054688</ele>
        <time>2019-02-17T14:47:02Z</time>
      </trkpt>
      <trkpt lat="43.26678" lon="5.63271">
        <ele>321.69836425781</ele>
        <time>2019-02-17T14:47:06Z</time>
      </trkpt>
      <trkpt lat="43.26673" lon="5.63269">
        <ele>324.1015625</ele>
        <time>2019-02-17T14:47:11Z</time>
      </trkpt>
      <trkpt lat="43.26667" lon="5.63282">
        <ele>328.90832519531</ele>
        <time>2019-02-17T14:47:23Z</time>
      </trkpt>
      <trkpt lat="43.26664" lon="5.6329">
        <ele>331.3115234375</ele>
        <time>2019-02-17T14:47:30Z</time>
      </trkpt>
      <trkpt lat="43.26655" lon="5.63295">
        <ele>332.75354003906</ele>
        <time>2019-02-17T14:47:41Z</time>
      </trkpt>
      <trkpt lat="43.26651" lon="5.63293">
        <ele>331.3115234375</ele>
        <time>2019-02-17T14:47:46Z</time>
      </trkpt>
      <trkpt lat="43.26648" lon="5.63287">
        <ele>331.79211425781</ele>
        <time>2019-02-17T14:47:51Z</time>
      </trkpt>
      <trkpt lat="43.26647" lon="5.63276">
        <ele>330.35021972656</ele>
        <time>2019-02-17T14:47:59Z</time>
      </trkpt>
      <trkpt lat="43.26643" lon="5.6327">
        <ele>327.94677734375</ele>
        <time>2019-02-17T14:48:09Z</time>
      </trkpt>
      <trkpt lat="43.2664" lon="5.63274">
        <ele>326.02416992188</ele>
        <time>2019-02-17T14:48:23Z</time>
      </trkpt>
      <trkpt lat="43.2664" lon="5.63273">
        <ele>326.98559570312</ele>
        <time>2019-02-17T14:48:38Z</time>
      </trkpt>
      <trkpt lat="43.26643" lon="5.63272">
        <ele>326.98559570312</ele>
        <time>2019-02-17T14:49:12Z</time>
      </trkpt>
      <trkpt lat="43.26645" lon="5.63266">
        <ele>327.46618652344</ele>
        <time>2019-02-17T14:49:15Z</time>
      </trkpt>
      <trkpt lat="43.26653" lon="5.63249">
        <ele>329.38891601562</ele>
        <time>2019-02-17T14:49:27Z</time>
      </trkpt>
      <trkpt lat="43.26662" lon="5.63231">
        <ele>332.75354003906</ele>
        <time>2019-02-17T14:49:44Z</time>
      </trkpt>
      <trkpt lat="43.26668" lon="5.63219">
        <ele>334.19543457031</ele>
        <time>2019-02-17T14:49:58Z</time>
      </trkpt>
      <trkpt lat="43.26678" lon="5.63213">
        <ele>334.19543457031</ele>
        <time>2019-02-17T14:50:12Z</time>
      </trkpt>
      <trkpt lat="43.26681" lon="5.63214">
        <ele>334.19543457031</ele>
        <time>2019-02-17T14:50:15Z</time>
      </trkpt>
      <trkpt lat="43.26684" lon="5.63219">
        <ele>333.71472167969</ele>
        <time>2019-02-17T14:50:20Z</time>
      </trkpt>
      <trkpt lat="43.26688" lon="5.63221">
        <ele>332.27282714844</ele>
        <time>2019-02-17T14:50:25Z</time>
      </trkpt>
      <trkpt lat="43.26692" lon="5.63224">
        <ele>331.79211425781</ele>
        <time>2019-02-17T14:50:29Z</time>
      </trkpt>
      <trkpt lat="43.26695" lon="5.63224">
        <ele>331.79211425781</ele>
        <time>2019-02-17T14:50:32Z</time>
      </trkpt>
      <trkpt lat="43.26704" lon="5.63215">
        <ele>332.75354003906</ele>
        <time>2019-02-17T14:50:43Z</time>
      </trkpt>
      <trkpt lat="43.26707" lon="5.63208">
        <ele>333.71472167969</ele>
        <time>2019-02-17T14:50:49Z</time>
      </trkpt>
      <trkpt lat="43.26713" lon="5.63192">
        <ele>335.15673828125</ele>
        <time>2019-02-17T14:51:04Z</time>
      </trkpt>
      <trkpt lat="43.26716" lon="5.63183">
        <ele>338.04077148438</ele>
        <time>2019-02-17T14:51:24Z</time>
      </trkpt>
      <trkpt lat="43.26719" lon="5.6317">
        <ele>339.00207519531</ele>
        <time>2019-02-17T14:51:48Z</time>
      </trkpt>
      <trkpt lat="43.26719" lon="5.63157">
        <ele>340.44409179688</ele>
        <time>2019-02-17T14:52:00Z</time>
      </trkpt>
      <trkpt lat="43.26724" lon="5.6314">
        <ele>342.36669921875</ele>
        <time>2019-02-17T14:52:16Z</time>
      </trkpt>
      <trkpt lat="43.26726" lon="5.63136">
        <ele>342.84729003906</ele>
        <time>2019-02-17T14:52:27Z</time>
      </trkpt>
      <trkpt lat="43.26727" lon="5.63129">
        <ele>343.32788085938</ele>
        <time>2019-02-17T14:52:37Z</time>
      </trkpt>
      <trkpt lat="43.26728" lon="5.63127">
        <ele>343.32788085938</ele>
        <time>2019-02-17T14:52:39Z</time>
      </trkpt>
      <trkpt lat="43.2673" lon="5.63123">
        <ele>343.80859375</ele>
        <time>2019-02-17T14:52:43Z</time>
      </trkpt>
      <trkpt lat="43.26733" lon="5.63111">
        <ele>342.84729003906</ele>
        <time>2019-02-17T14:52:56Z</time>
      </trkpt>
      <trkpt lat="43.26734" lon="5.63108">
        <ele>342.36669921875</ele>
        <time>2019-02-17T14:53:00Z</time>
      </trkpt>
      <trkpt lat="43.26739" lon="5.63093">
        <ele>343.80859375</ele>
        <time>2019-02-17T14:53:13Z</time>
      </trkpt>
      <trkpt lat="43.2674" lon="5.63091">
        <ele>343.32788085938</ele>
        <time>2019-02-17T14:53:15Z</time>
      </trkpt>
      <trkpt lat="43.26743" lon="5.63086">
        <ele>344.77001953125</ele>
        <time>2019-02-17T14:53:21Z</time>
      </trkpt>
      <trkpt lat="43.2675" lon="5.63076">
        <ele>346.21203613281</ele>
        <time>2019-02-17T14:53:31Z</time>
      </trkpt>
      <trkpt lat="43.2675" lon="5.63073">
        <ele>348.13464355469</ele>
        <time>2019-02-17T14:53:47Z</time>
      </trkpt>
      <trkpt lat="43.26752" lon="5.63063">
        <ele>348.13464355469</ele>
        <time>2019-02-17T14:54:11Z</time>
      </trkpt>
      <trkpt lat="43.26751" lon="5.63059">
        <ele>346.21203613281</ele>
        <time>2019-02-17T14:54:25Z</time>
      </trkpt>
      <trkpt lat="43.26756" lon="5.63041">
        <ele>345.73132324219</ele>
        <time>2019-02-17T14:54:40Z</time>
      </trkpt>
      <trkpt lat="43.26755" lon="5.63028">
        <ele>346.21203613281</ele>
        <time>2019-02-17T14:54:48Z</time>
      </trkpt>
      <trkpt lat="43.26753" lon="5.63026">
        <ele>347.65393066406</ele>
        <time>2019-02-17T14:55:02Z</time>
      </trkpt>
      <trkpt lat="43.26753" lon="5.63025">
        <ele>348.13464355469</ele>
        <time>2019-02-17T14:55:16Z</time>
      </trkpt>
      <trkpt lat="43.26752" lon="5.63022">
        <ele>348.13464355469</ele>
        <time>2019-02-17T14:55:18Z</time>
      </trkpt>
      <trkpt lat="43.2675" lon="5.63009">
        <ele>349.57653808594</ele>
        <time>2019-02-17T14:55:27Z</time>
      </trkpt>
      <trkpt lat="43.26745" lon="5.63003">
        <ele>351.49914550781</ele>
        <time>2019-02-17T14:55:47Z</time>
      </trkpt>
      <trkpt lat="43.26736" lon="5.62999">
        <ele>352.46057128906</ele>
        <time>2019-02-17T14:56:02Z</time>
      </trkpt>
      <trkpt lat="43.26728" lon="5.63">
        <ele>353.421875</ele>
        <time>2019-02-17T14:56:19Z</time>
      </trkpt>
      <trkpt lat="43.26728" lon="5.63">
        <ele>353.421875</ele>
        <time>2019-02-17T14:56:28Z</time>
      </trkpt>
      <trkpt lat="43.26721" lon="5.62983">
        <ele>355.34448242188</ele>
        <time>2019-02-17T14:56:41Z</time>
      </trkpt>
      <trkpt lat="43.26711" lon="5.62973">
        <ele>357.74780273438</ele>
        <time>2019-02-17T14:56:59Z</time>
      </trkpt>
      <trkpt lat="43.26701" lon="5.62974">
        <ele>358.708984375</ele>
        <time>2019-02-17T14:57:26Z</time>
      </trkpt>
      <trkpt lat="43.26682" lon="5.62969">
        <ele>359.67041015625</ele>
        <time>2019-02-17T14:57:43Z</time>
      </trkpt>
      <trkpt lat="43.26674" lon="5.62976">
        <ele>360.63171386719</ele>
        <time>2019-02-17T14:57:56Z</time>
      </trkpt>
      <trkpt lat="43.26669" lon="5.62972">
        <ele>362.55432128906</ele>
        <time>2019-02-17T14:58:08Z</time>
      </trkpt>
      <trkpt lat="43.26665" lon="5.62966">
        <ele>362.55432128906</ele>
        <time>2019-02-17T14:58:39Z</time>
      </trkpt>
      <trkpt lat="43.2666" lon="5.62964">
        <ele>363.99633789062</ele>
        <time>2019-02-17T14:58:41Z</time>
      </trkpt>
      <trkpt lat="43.26657" lon="5.6295">
        <ele>365.43835449219</ele>
        <time>2019-02-17T14:58:51Z</time>
      </trkpt>
      <trkpt lat="43.26659" lon="5.62938">
        <ele>364.47692871094</ele>
        <time>2019-02-17T14:59:00Z</time>
      </trkpt>
      <trkpt lat="43.26662" lon="5.6293">
        <ele>363.99633789062</ele>
        <time>2019-02-17T14:59:14Z</time>
      </trkpt>
      <trkpt lat="43.26666" lon="5.62909">
        <ele>363.03503417969</ele>
        <time>2019-02-17T14:59:31Z</time>
      </trkpt>
      <trkpt lat="43.26669" lon="5.62897">
        <ele>362.07373046875</ele>
        <time>2019-02-17T14:59:40Z</time>
      </trkpt>
      <trkpt lat="43.26673" lon="5.62868">
        <ele>360.15112304688</ele>
        <time>2019-02-17T15:00:06Z</time>
      </trkpt>
      <trkpt lat="43.26668" lon="5.62827">
        <ele>359.18969726562</ele>
        <time>2019-02-17T15:00:36Z</time>
      </trkpt>
      <trkpt lat="43.26667" lon="5.62814">
        <ele>358.708984375</ele>
        <time>2019-02-17T15:00:52Z</time>
      </trkpt>
      <trkpt lat="43.26664" lon="5.62782">
        <ele>357.74780273438</ele>
        <time>2019-02-17T15:01:16Z</time>
      </trkpt>
      <trkpt lat="43.26653" lon="5.62782">
        <ele>355.8251953125</ele>
        <time>2019-02-17T15:01:32Z</time>
      </trkpt>
      <trkpt lat="43.26655" lon="5.62758">
        <ele>355.8251953125</ele>
        <time>2019-02-17T15:01:52Z</time>
      </trkpt>
      <trkpt lat="43.26658" lon="5.62742">
        <ele>357.26708984375</ele>
        <time>2019-02-17T15:02:04Z</time>
      </trkpt>
      <trkpt lat="43.26655" lon="5.62718">
        <ele>362.07373046875</ele>
        <time>2019-02-17T15:02:20Z</time>
      </trkpt>
      <trkpt lat="43.26654" lon="5.62713">
        <ele>362.07373046875</ele>
        <time>2019-02-17T15:02:22Z</time>
      </trkpt>
      <trkpt lat="43.26651" lon="5.62706">
        <ele>364.95764160156</ele>
        <time>2019-02-17T15:02:30Z</time>
      </trkpt>
      <trkpt lat="43.26645" lon="5.62688">
        <ele>363.03503417969</ele>
        <time>2019-02-17T15:02:44Z</time>
      </trkpt>
      <trkpt lat="43.26645" lon="5.62687">
        <ele>363.03503417969</ele>
        <time>2019-02-17T15:02:45Z</time>
      </trkpt>
      <trkpt lat="43.26647" lon="5.62674">
        <ele>363.03503417969</ele>
        <time>2019-02-17T15:02:58Z</time>
      </trkpt>
      <trkpt lat="43.26646" lon="5.62671">
        <ele>363.03503417969</ele>
        <time>2019-02-17T15:03:02Z</time>
      </trkpt>
      <trkpt lat="43.26646" lon="5.62668">
        <ele>362.55432128906</ele>
        <time>2019-02-17T15:03:04Z</time>
      </trkpt>
      <trkpt lat="43.26646" lon="5.62654">
        <ele>360.63171386719</ele>
        <time>2019-02-17T15:03:15Z</time>
      </trkpt>
      <trkpt lat="43.26651" lon="5.62641">
        <ele>362.55432128906</ele>
        <time>2019-02-17T15:03:27Z</time>
      </trkpt>
      <trkpt lat="43.26653" lon="5.62631">
        <ele>362.07373046875</ele>
        <time>2019-02-17T15:03:42Z</time>
      </trkpt>
      <trkpt lat="43.26655" lon="5.6263">
        <ele>362.07373046875</ele>
        <time>2019-02-17T15:03:43Z</time>
      </trkpt>
      <trkpt lat="43.26656" lon="5.62626">
        <ele>362.07373046875</ele>
        <time>2019-02-17T15:03:45Z</time>
      </trkpt>
      <trkpt lat="43.26657" lon="5.62612">
        <ele>360.15112304688</ele>
        <time>2019-02-17T15:03:55Z</time>
      </trkpt>
      <trkpt lat="43.26657" lon="5.626">
        <ele>359.67041015625</ele>
        <time>2019-02-17T15:04:05Z</time>
      </trkpt>
      <trkpt lat="43.26659" lon="5.62595">
        <ele>357.74780273438</ele>
        <time>2019-02-17T15:04:09Z</time>
      </trkpt>
      <trkpt lat="43.2666" lon="5.62585">
        <ele>355.8251953125</ele>
        <time>2019-02-17T15:04:16Z</time>
      </trkpt>
      <trkpt lat="43.26657" lon="5.62565">
        <ele>354.86376953125</ele>
        <time>2019-02-17T15:04:29Z</time>
      </trkpt>
      <trkpt lat="43.26646" lon="5.6253">
        <ele>355.34448242188</ele>
        <time>2019-02-17T15:04:56Z</time>
      </trkpt>
      <trkpt lat="43.26639" lon="5.62505">
        <ele>357.74780273438</ele>
        <time>2019-02-17T15:05:13Z</time>
      </trkpt>
      <trkpt lat="43.26636" lon="5.62489">
        <ele>357.74780273438</ele>
        <time>2019-02-17T15:05:23Z</time>
      </trkpt>
      <trkpt lat="43.26627" lon="5.6247">
        <ele>358.708984375</ele>
        <time>2019-02-17T15:05:39Z</time>
      </trkpt>
      <trkpt lat="43.26621" lon="5.62467">
        <ele>356.78637695312</ele>
        <time>2019-02-17T15:05:46Z</time>
      </trkpt>
      <trkpt lat="43.26609" lon="5.62471">
        <ele>355.8251953125</ele>
        <time>2019-02-17T15:05:58Z</time>
      </trkpt>
      <trkpt lat="43.26602" lon="5.62476">
        <ele>355.8251953125</ele>
        <time>2019-02-17T15:06:07Z</time>
      </trkpt>
      <trkpt lat="43.26587" lon="5.62479">
        <ele>353.421875</ele>
        <time>2019-02-17T15:06:21Z</time>
      </trkpt>
      <trkpt lat="43.26594" lon="5.62463">
        <ele>353.421875</ele>
        <time>2019-02-17T15:06:36Z</time>
      </trkpt>
      <trkpt lat="43.26597" lon="5.6246">
        <ele>353.421875</ele>
        <time>2019-02-17T15:06:40Z</time>
      </trkpt>
      <trkpt lat="43.26609" lon="5.62447">
        <ele>352.46057128906</ele>
        <time>2019-02-17T15:06:55Z</time>
      </trkpt>
      <trkpt lat="43.26613" lon="5.62437">
        <ele>351.49914550781</ele>
        <time>2019-02-17T15:07:03Z</time>
      </trkpt>
      <trkpt lat="43.26616" lon="5.62429">
        <ele>351.97985839844</ele>
        <time>2019-02-17T15:07:09Z</time>
      </trkpt>
      <trkpt lat="43.2663" lon="5.62408">
        <ele>352.46057128906</ele>
        <time>2019-02-17T15:07:29Z</time>
      </trkpt>
      <trkpt lat="43.26632" lon="5.62405">
        <ele>351.97985839844</ele>
        <time>2019-02-17T15:07:32Z</time>
      </trkpt>
      <trkpt lat="43.26635" lon="5.62398">
        <ele>351.01843261719</ele>
        <time>2019-02-17T15:07:40Z</time>
      </trkpt>
      <trkpt lat="43.26643" lon="5.62383">
        <ele>351.97985839844</ele>
        <time>2019-02-17T15:07:52Z</time>
      </trkpt>
      <trkpt lat="43.26651" lon="5.62369">
        <ele>352.94116210938</ele>
        <time>2019-02-17T15:08:05Z</time>
      </trkpt>
      <trkpt lat="43.26663" lon="5.6235">
        <ele>354.38317871094</ele>
        <time>2019-02-17T15:08:21Z</time>
      </trkpt>
      <trkpt lat="43.26663" lon="5.6235">
        <ele>354.38317871094</ele>
        <time>2019-02-17T15:08:22Z</time>
      </trkpt>
      <trkpt lat="43.26664" lon="5.62347">
        <ele>353.90258789062</ele>
        <time>2019-02-17T15:08:24Z</time>
      </trkpt>
      <trkpt lat="43.26667" lon="5.62344">
        <ele>354.38317871094</ele>
        <time>2019-02-17T15:08:27Z</time>
      </trkpt>
      <trkpt lat="43.26668" lon="5.62342">
        <ele>354.86376953125</ele>
        <time>2019-02-17T15:08:29Z</time>
      </trkpt>
      <trkpt lat="43.26669" lon="5.62335">
        <ele>352.94116210938</ele>
        <time>2019-02-17T15:08:33Z</time>
      </trkpt>
      <trkpt lat="43.2667" lon="5.62329">
        <ele>352.46057128906</ele>
        <time>2019-02-17T15:08:37Z</time>
      </trkpt>
      <trkpt lat="43.26672" lon="5.62324">
        <ele>352.46057128906</ele>
        <time>2019-02-17T15:08:41Z</time>
      </trkpt>
      <trkpt lat="43.26675" lon="5.62314">
        <ele>353.90258789062</ele>
        <time>2019-02-17T15:08:50Z</time>
      </trkpt>
      <trkpt lat="43.26676" lon="5.62311">
        <ele>353.90258789062</ele>
        <time>2019-02-17T15:08:52Z</time>
      </trkpt>
      <trkpt lat="43.26682" lon="5.62294">
        <ele>353.90258789062</ele>
        <time>2019-02-17T15:09:04Z</time>
      </trkpt>
      <trkpt lat="43.26689" lon="5.62279">
        <ele>352.46057128906</ele>
        <time>2019-02-17T15:09:14Z</time>
      </trkpt>
      <trkpt lat="43.26691" lon="5.62271">
        <ele>351.49914550781</ele>
        <time>2019-02-17T15:09:20Z</time>
      </trkpt>
      <trkpt lat="43.26698" lon="5.62263">
        <ele>349.57653808594</ele>
        <time>2019-02-17T15:09:32Z</time>
      </trkpt>
      <trkpt lat="43.26705" lon="5.62249">
        <ele>346.69262695312</ele>
        <time>2019-02-17T15:09:43Z</time>
      </trkpt>
      <trkpt lat="43.26708" lon="5.62246">
        <ele>347.17321777344</ele>
        <time>2019-02-17T15:09:46Z</time>
      </trkpt>
      <trkpt lat="43.26713" lon="5.62227">
        <ele>345.25061035156</ele>
        <time>2019-02-17T15:09:59Z</time>
      </trkpt>
      <trkpt lat="43.26716" lon="5.62221">
        <ele>344.77001953125</ele>
        <time>2019-02-17T15:10:05Z</time>
      </trkpt>
      <trkpt lat="43.26718" lon="5.62217">
        <ele>343.80859375</ele>
        <time>2019-02-17T15:10:08Z</time>
      </trkpt>
      <trkpt lat="43.2672" lon="5.6221">
        <ele>344.77001953125</ele>
        <time>2019-02-17T15:10:12Z</time>
      </trkpt>
      <trkpt lat="43.26727" lon="5.62199">
        <ele>344.77001953125</ele>
        <time>2019-02-17T15:10:22Z</time>
      </trkpt>
      <trkpt lat="43.26735" lon="5.62188">
        <ele>343.80859375</ele>
        <time>2019-02-17T15:10:32Z</time>
      </trkpt>
      <trkpt lat="43.26737" lon="5.62181">
        <ele>342.36669921875</ele>
        <time>2019-02-17T15:10:37Z</time>
      </trkpt>
      <trkpt lat="43.26742" lon="5.62171">
        <ele>340.44409179688</ele>
        <time>2019-02-17T15:10:48Z</time>
      </trkpt>
      <trkpt lat="43.26741" lon="5.62169">
        <ele>339.48266601562</ele>
        <time>2019-02-17T15:11:04Z</time>
      </trkpt>
      <trkpt lat="43.26743" lon="5.62168">
        <ele>339.48266601562</ele>
        <time>2019-02-17T15:11:07Z</time>
      </trkpt>
      <trkpt lat="43.26753" lon="5.62171">
        <ele>339.96337890625</ele>
        <time>2019-02-17T15:11:16Z</time>
      </trkpt>
      <trkpt lat="43.26768" lon="5.62183">
        <ele>344.77001953125</ele>
        <time>2019-02-17T15:11:34Z</time>
      </trkpt>
      <trkpt lat="43.26775" lon="5.62191">
        <ele>346.21203613281</ele>
        <time>2019-02-17T15:11:46Z</time>
      </trkpt>
      <trkpt lat="43.26781" lon="5.62195">
        <ele>344.77001953125</ele>
        <time>2019-02-17T15:11:52Z</time>
      </trkpt>
      <trkpt lat="43.26784" lon="5.62213">
        <ele>342.84729003906</ele>
        <time>2019-02-17T15:12:05Z</time>
      </trkpt>
      <trkpt lat="43.26788" lon="5.62229">
        <ele>342.84729003906</ele>
        <time>2019-02-17T15:12:15Z</time>
      </trkpt>
      <trkpt lat="43.26787" lon="5.62231">
        <ele>343.32788085938</ele>
        <time>2019-02-17T15:12:17Z</time>
      </trkpt>
      <trkpt lat="43.26788" lon="5.62242">
        <ele>343.32788085938</ele>
        <time>2019-02-17T15:12:25Z</time>
      </trkpt>
      <trkpt lat="43.26789" lon="5.6225">
        <ele>342.84729003906</ele>
        <time>2019-02-17T15:12:30Z</time>
      </trkpt>
      <trkpt lat="43.2679" lon="5.62264">
        <ele>343.32788085938</ele>
        <time>2019-02-17T15:12:39Z</time>
      </trkpt>
      <trkpt lat="43.26794" lon="5.62276">
        <ele>343.80859375</ele>
        <time>2019-02-17T15:12:49Z</time>
      </trkpt>
      <trkpt lat="43.26794" lon="5.62277">
        <ele>344.28942871094</ele>
        <time>2019-02-17T15:12:53Z</time>
      </trkpt>
      <trkpt lat="43.26798" lon="5.6229">
        <ele>341.88598632812</ele>
        <time>2019-02-17T15:13:03Z</time>
      </trkpt>
      <trkpt lat="43.26803" lon="5.62296">
        <ele>342.36669921875</ele>
        <time>2019-02-17T15:13:14Z</time>
      </trkpt>
      <trkpt lat="43.26806" lon="5.62292">
        <ele>343.32788085938</ele>
        <time>2019-02-17T15:13:28Z</time>
      </trkpt>
      <trkpt lat="43.26815" lon="5.62279">
        <ele>345.25061035156</ele>
        <time>2019-02-17T15:13:42Z</time>
      </trkpt>
      <trkpt lat="43.26822" lon="5.62269">
        <ele>346.69262695312</ele>
        <time>2019-02-17T15:13:56Z</time>
      </trkpt>
      <trkpt lat="43.26824" lon="5.62265">
        <ele>346.69262695312</ele>
        <time>2019-02-17T15:14:00Z</time>
      </trkpt>
      <trkpt lat="43.2683" lon="5.62257">
        <ele>348.13464355469</ele>
        <time>2019-02-17T15:14:12Z</time>
      </trkpt>
      <trkpt lat="43.26842" lon="5.62245">
        <ele>352.46057128906</ele>
        <time>2019-02-17T15:14:29Z</time>
      </trkpt>
      <trkpt lat="43.26843" lon="5.62243">
        <ele>352.94116210938</ele>
        <time>2019-02-17T15:14:32Z</time>
      </trkpt>
      <trkpt lat="43.26845" lon="5.62241">
        <ele>354.38317871094</ele>
        <time>2019-02-17T15:14:37Z</time>
      </trkpt>
      <trkpt lat="43.26853" lon="5.62235">
        <ele>357.74780273438</ele>
        <time>2019-02-17T15:14:49Z</time>
      </trkpt>
      <trkpt lat="43.26858" lon="5.62233">
        <ele>359.67041015625</ele>
        <time>2019-02-17T15:15:02Z</time>
      </trkpt>
      <trkpt lat="43.26858" lon="5.62234">
        <ele>360.15112304688</ele>
        <time>2019-02-17T15:15:17Z</time>
      </trkpt>
      <trkpt lat="43.26868" lon="5.62235">
        <ele>362.07373046875</ele>
        <time>2019-02-17T15:15:33Z</time>
      </trkpt>
      <trkpt lat="43.26875" lon="5.62238">
        <ele>364.95764160156</ele>
        <time>2019-02-17T15:15:46Z</time>
      </trkpt>
      <trkpt lat="43.26881" lon="5.62238">
        <ele>367.36096191406</ele>
        <time>2019-02-17T15:15:56Z</time>
      </trkpt>
      <trkpt lat="43.26884" lon="5.62243">
        <ele>367.36096191406</ele>
        <time>2019-02-17T15:16:19Z</time>
      </trkpt>
      <trkpt lat="43.26895" lon="5.62248">
        <ele>366.39953613281</ele>
        <time>2019-02-17T15:16:31Z</time>
      </trkpt>
      <trkpt lat="43.26903" lon="5.62251">
        <ele>366.88024902344</ele>
        <time>2019-02-17T15:16:46Z</time>
      </trkpt>
      <trkpt lat="43.26909" lon="5.62253">
        <ele>368.322265625</ele>
        <time>2019-02-17T15:17:01Z</time>
      </trkpt>
      <trkpt lat="43.26921" lon="5.62254">
        <ele>372.64819335938</ele>
        <time>2019-02-17T15:17:18Z</time>
      </trkpt>
      <trkpt lat="43.26922" lon="5.62252">
        <ele>373.12890625</ele>
        <time>2019-02-17T15:17:20Z</time>
      </trkpt>
      <trkpt lat="43.26924" lon="5.62244">
        <ele>375.53210449219</ele>
        <time>2019-02-17T15:17:33Z</time>
      </trkpt>
      <trkpt lat="43.26925" lon="5.62237">
        <ele>375.53210449219</ele>
        <time>2019-02-17T15:17:44Z</time>
      </trkpt>
      <trkpt lat="43.26922" lon="5.62223">
        <ele>378.41613769531</ele>
        <time>2019-02-17T15:17:55Z</time>
      </trkpt>
      <trkpt lat="43.26918" lon="5.62223">
        <ele>379.37744140625</ele>
        <time>2019-02-17T15:18:11Z</time>
      </trkpt>
      <trkpt lat="43.26917" lon="5.62213">
        <ele>381.30004882812</ele>
        <time>2019-02-17T15:18:58Z</time>
      </trkpt>
      <trkpt lat="43.26916" lon="5.62209">
        <ele>382.74206542969</ele>
        <time>2019-02-17T15:19:02Z</time>
      </trkpt>
      <trkpt lat="43.2691" lon="5.62194">
        <ele>384.18408203125</ele>
        <time>2019-02-17T15:19:17Z</time>
      </trkpt>
      <trkpt lat="43.26909" lon="5.62193">
        <ele>384.18408203125</ele>
        <time>2019-02-17T15:19:19Z</time>
      </trkpt>
      <trkpt lat="43.26907" lon="5.6219">
        <ele>383.70324707031</ele>
        <time>2019-02-17T15:19:22Z</time>
      </trkpt>
      <trkpt lat="43.26907" lon="5.62176">
        <ele>385.14538574219</ele>
        <time>2019-02-17T15:19:35Z</time>
      </trkpt>
      <trkpt lat="43.26906" lon="5.62171">
        <ele>386.10668945312</ele>
        <time>2019-02-17T15:19:41Z</time>
      </trkpt>
      <trkpt lat="43.269" lon="5.62156">
        <ele>387.06799316406</ele>
        <time>2019-02-17T15:19:52Z</time>
      </trkpt>
      <trkpt lat="43.26898" lon="5.62145">
        <ele>389.47119140625</ele>
        <time>2019-02-17T15:20:04Z</time>
      </trkpt>
      <trkpt lat="43.26895" lon="5.62135">
        <ele>390.91320800781</ele>
        <time>2019-02-17T15:20:16Z</time>
      </trkpt>
      <trkpt lat="43.26893" lon="5.62129">
        <ele>392.35534667969</ele>
        <time>2019-02-17T15:20:27Z</time>
      </trkpt>
      <trkpt lat="43.2689" lon="5.62119">
        <ele>393.79724121094</ele>
        <time>2019-02-17T15:20:40Z</time>
      </trkpt>
      <trkpt lat="43.26887" lon="5.6211">
        <ele>394.75854492188</ele>
        <time>2019-02-17T15:20:51Z</time>
      </trkpt>
      <trkpt lat="43.26885" lon="5.62101">
        <ele>395.23913574219</ele>
        <time>2019-02-17T15:21:04Z</time>
      </trkpt>
      <trkpt lat="43.26884" lon="5.621">
        <ele>395.71984863281</ele>
        <time>2019-02-17T15:21:05Z</time>
      </trkpt>
      <trkpt lat="43.26882" lon="5.62097">
        <ele>395.71984863281</ele>
        <time>2019-02-17T15:21:30Z</time>
      </trkpt>
      <trkpt lat="43.26882" lon="5.62096">
        <ele>395.71984863281</ele>
        <time>2019-02-17T15:22:50Z</time>
      </trkpt>
      <trkpt lat="43.26881" lon="5.62093">
        <ele>396.20056152344</ele>
        <time>2019-02-17T15:22:57Z</time>
      </trkpt>
      <trkpt lat="43.2688" lon="5.62088">
        <ele>396.68115234375</ele>
        <time>2019-02-17T15:23:02Z</time>
      </trkpt>
      <trkpt lat="43.26876" lon="5.62081">
        <ele>398.12316894531</ele>
        <time>2019-02-17T15:23:15Z</time>
      </trkpt>
      <trkpt lat="43.26872" lon="5.6207">
        <ele>398.60375976562</ele>
        <time>2019-02-17T15:23:29Z</time>
      </trkpt>
      <trkpt lat="43.2687" lon="5.62055">
        <ele>397.64245605469</ele>
        <time>2019-02-17T15:23:41Z</time>
      </trkpt>
      <trkpt lat="43.26871" lon="5.62044">
        <ele>397.16174316406</ele>
        <time>2019-02-17T15:23:51Z</time>
      </trkpt>
      <trkpt lat="43.26875" lon="5.62036">
        <ele>397.64245605469</ele>
        <time>2019-02-17T15:24:04Z</time>
      </trkpt>
      <trkpt lat="43.26874" lon="5.62025">
        <ele>399.08435058594</ele>
        <time>2019-02-17T15:24:10Z</time>
      </trkpt>
      <trkpt lat="43.26871" lon="5.6201">
        <ele>402.9296875</ele>
        <time>2019-02-17T15:24:24Z</time>
      </trkpt>
      <trkpt lat="43.2687" lon="5.61995">
        <ele>402.9296875</ele>
        <time>2019-02-17T15:24:37Z</time>
      </trkpt>
      <trkpt lat="43.26868" lon="5.61987">
        <ele>402.44909667969</ele>
        <time>2019-02-17T15:24:44Z</time>
      </trkpt>
      <trkpt lat="43.26863" lon="5.61974">
        <ele>404.85229492188</ele>
        <time>2019-02-17T15:24:57Z</time>
      </trkpt>
      <trkpt lat="43.26858" lon="5.61956">
        <ele>408.69763183594</ele>
        <time>2019-02-17T15:25:12Z</time>
      </trkpt>
      <trkpt lat="43.26859" lon="5.61937">
        <ele>410.62023925781</ele>
        <time>2019-02-17T15:25:33Z</time>
      </trkpt>
      <trkpt lat="43.26868" lon="5.6192">
        <ele>411.10095214844</ele>
        <time>2019-02-17T15:25:51Z</time>
      </trkpt>
      <trkpt lat="43.26876" lon="5.61911">
        <ele>411.58166503906</ele>
        <time>2019-02-17T15:25:59Z</time>
      </trkpt>
      <trkpt lat="43.26883" lon="5.61897">
        <ele>414.94616699219</ele>
        <time>2019-02-17T15:26:11Z</time>
      </trkpt>
      <trkpt lat="43.26891" lon="5.61877">
        <ele>417.349609375</ele>
        <time>2019-02-17T15:26:29Z</time>
      </trkpt>
      <trkpt lat="43.26895" lon="5.61859">
        <ele>419.75280761719</ele>
        <time>2019-02-17T15:26:47Z</time>
      </trkpt>
      <trkpt lat="43.26897" lon="5.61846">
        <ele>422.63671875</ele>
        <time>2019-02-17T15:27:02Z</time>
      </trkpt>
      <trkpt lat="43.26899" lon="5.61829">
        <ele>423.11743164062</ele>
        <time>2019-02-17T15:27:17Z</time>
      </trkpt>
      <trkpt lat="43.26905" lon="5.61812">
        <ele>429.84655761719</ele>
        <time>2019-02-17T15:27:41Z</time>
      </trkpt>
      <trkpt lat="43.26903" lon="5.61804">
        <ele>433.69189453125</ele>
        <time>2019-02-17T15:28:02Z</time>
      </trkpt>
      <trkpt lat="43.26903" lon="5.61785">
        <ele>433.69189453125</ele>
        <time>2019-02-17T15:28:30Z</time>
      </trkpt>
      <trkpt lat="43.26901" lon="5.61777">
        <ele>434.17260742188</ele>
        <time>2019-02-17T15:29:03Z</time>
      </trkpt>
      <trkpt lat="43.26899" lon="5.61762">
        <ele>434.17260742188</ele>
        <time>2019-02-17T15:29:16Z</time>
      </trkpt>
      <trkpt lat="43.269" lon="5.61747">
        <ele>435.61450195312</ele>
        <time>2019-02-17T15:29:30Z</time>
      </trkpt>
      <trkpt lat="43.26902" lon="5.61734">
        <ele>434.17260742188</ele>
        <time>2019-02-17T15:29:40Z</time>
      </trkpt>
      <trkpt lat="43.26904" lon="5.61726">
        <ele>433.69189453125</ele>
        <time>2019-02-17T15:29:49Z</time>
      </trkpt>
      <trkpt lat="43.26901" lon="5.61713">
        <ele>434.17260742188</ele>
        <time>2019-02-17T15:30:04Z</time>
      </trkpt>
      <trkpt lat="43.26902" lon="5.61692">
        <ele>435.61450195312</ele>
        <time>2019-02-17T15:30:22Z</time>
      </trkpt>
      <trkpt lat="43.26901" lon="5.61676">
        <ele>435.13391113281</ele>
        <time>2019-02-17T15:30:33Z</time>
      </trkpt>
      <trkpt lat="43.26902" lon="5.61671">
        <ele>436.57592773438</ele>
        <time>2019-02-17T15:30:38Z</time>
      </trkpt>
      <trkpt lat="43.26904" lon="5.61666">
        <ele>436.57592773438</ele>
        <time>2019-02-17T15:30:57Z</time>
      </trkpt>
      <trkpt lat="43.26909" lon="5.61662">
        <ele>437.537109375</ele>
        <time>2019-02-17T15:31:09Z</time>
      </trkpt>
      <trkpt lat="43.26911" lon="5.6166">
        <ele>438.01782226562</ele>
        <time>2019-02-17T15:31:12Z</time>
      </trkpt>
      <trkpt lat="43.26914" lon="5.61657">
        <ele>438.49853515625</ele>
        <time>2019-02-17T15:31:16Z</time>
      </trkpt>
      <trkpt lat="43.26922" lon="5.6165">
        <ele>438.97912597656</ele>
        <time>2019-02-17T15:31:29Z</time>
      </trkpt>
      <trkpt lat="43.26929" lon="5.61639">
        <ele>440.90185546875</ele>
        <time>2019-02-17T15:31:44Z</time>
      </trkpt>
      <trkpt lat="43.26936" lon="5.61631">
        <ele>443.78576660156</ele>
        <time>2019-02-17T15:31:56Z</time>
      </trkpt>
      <trkpt lat="43.26942" lon="5.61622">
        <ele>444.7470703125</ele>
        <time>2019-02-17T15:32:09Z</time>
      </trkpt>
      <trkpt lat="43.26944" lon="5.61606">
        <ele>447.63098144531</ele>
        <time>2019-02-17T15:32:22Z</time>
      </trkpt>
      <trkpt lat="43.26948" lon="5.61594">
        <ele>450.03442382812</ele>
        <time>2019-02-17T15:32:33Z</time>
      </trkpt>
      <trkpt lat="43.26952" lon="5.61582">
        <ele>451.47631835938</ele>
        <time>2019-02-17T15:32:44Z</time>
      </trkpt>
      <trkpt lat="43.26953" lon="5.61581">
        <ele>452.43762207031</ele>
        <time>2019-02-17T15:32:47Z</time>
      </trkpt>
      <trkpt lat="43.26958" lon="5.61575">
        <ele>451.47631835938</ele>
        <time>2019-02-17T15:32:58Z</time>
      </trkpt>
      <trkpt lat="43.26962" lon="5.61574">
        <ele>452.43762207031</ele>
        <time>2019-02-17T15:33:10Z</time>
      </trkpt>
      <trkpt lat="43.26969" lon="5.61573">
        <ele>455.32153320312</ele>
        <time>2019-02-17T15:33:22Z</time>
      </trkpt>
      <trkpt lat="43.26973" lon="5.61564">
        <ele>460.12817382812</ele>
        <time>2019-02-17T15:33:39Z</time>
      </trkpt>
      <trkpt lat="43.26981" lon="5.61561">
        <ele>463.97338867188</ele>
        <time>2019-02-17T15:33:53Z</time>
      </trkpt>
      <trkpt lat="43.26984" lon="5.6156">
        <ele>464.93481445312</ele>
        <time>2019-02-17T15:34:13Z</time>
      </trkpt>
      <trkpt lat="43.26989" lon="5.61556">
        <ele>465.89611816406</ele>
        <time>2019-02-17T15:34:25Z</time>
      </trkpt>
      <trkpt lat="43.26995" lon="5.61555">
        <ele>468.29931640625</ele>
        <time>2019-02-17T15:34:37Z</time>
      </trkpt>
      <trkpt lat="43.26994" lon="5.61556">
        <ele>468.29931640625</ele>
        <time>2019-02-17T15:34:38Z</time>
      </trkpt>
      <trkpt lat="43.26996" lon="5.61552">
        <ele>469.74133300781</ele>
        <time>2019-02-17T15:34:48Z</time>
      </trkpt>
      <trkpt lat="43.26999" lon="5.61549">
        <ele>471.18334960938</ele>
        <time>2019-02-17T15:35:29Z</time>
      </trkpt>
      <trkpt lat="43.27004" lon="5.61545">
        <ele>473.10607910156</ele>
        <time>2019-02-17T15:35:36Z</time>
      </trkpt>
      <trkpt lat="43.27013" lon="5.6154">
        <ele>476.47058105469</ele>
        <time>2019-02-17T15:35:48Z</time>
      </trkpt>
      <trkpt lat="43.27014" lon="5.6154">
        <ele>478.87390136719</ele>
        <time>2019-02-17T15:36:08Z</time>
      </trkpt>
      <trkpt lat="43.27021" lon="5.61537">
        <ele>480.31591796875</ele>
        <time>2019-02-17T15:36:21Z</time>
      </trkpt>
      <trkpt lat="43.27024" lon="5.61539">
        <ele>481.27722167969</ele>
        <time>2019-02-17T15:36:33Z</time>
      </trkpt>
      <trkpt lat="43.27025" lon="5.61538">
        <ele>481.7578125</ele>
        <time>2019-02-17T15:37:18Z</time>
      </trkpt>
      <trkpt lat="43.27026" lon="5.61539">
        <ele>481.27722167969</ele>
        <time>2019-02-17T15:38:27Z</time>
      </trkpt>
      <trkpt lat="43.27023" lon="5.61539">
        <ele>480.31591796875</ele>
        <time>2019-02-17T15:43:04Z</time>
      </trkpt>
      <trkpt lat="43.27023" lon="5.6154">
        <ele>479.83508300781</ele>
        <time>2019-02-17T15:43:22Z</time>
      </trkpt>
      <trkpt lat="43.27018" lon="5.61543">
        <ele>480.79663085938</ele>
        <time>2019-02-17T15:43:44Z</time>
      </trkpt>
      <trkpt lat="43.27018" lon="5.61547">
        <ele>480.31591796875</ele>
        <time>2019-02-17T15:44:00Z</time>
      </trkpt>
      <trkpt lat="43.27016" lon="5.61544">
        <ele>478.87390136719</ele>
        <time>2019-02-17T15:44:19Z</time>
      </trkpt>
      <trkpt lat="43.27013" lon="5.61543">
        <ele>478.87390136719</ele>
        <time>2019-02-17T15:44:31Z</time>
      </trkpt>
      <trkpt lat="43.2701" lon="5.61547">
        <ele>477.91247558594</ele>
        <time>2019-02-17T15:44:40Z</time>
      </trkpt>
      <trkpt lat="43.2701" lon="5.61552">
        <ele>476.95129394531</ele>
        <time>2019-02-17T15:44:54Z</time>
      </trkpt>
      <trkpt lat="43.27011" lon="5.61553">
        <ele>476.47058105469</ele>
        <time>2019-02-17T15:44:56Z</time>
      </trkpt>
      <trkpt lat="43.27015" lon="5.61554">
        <ele>475.98986816406</ele>
        <time>2019-02-17T15:44:59Z</time>
      </trkpt>
      <trkpt lat="43.2702" lon="5.61558">
        <ele>476.95129394531</ele>
        <time>2019-02-17T15:45:08Z</time>
      </trkpt>
      <trkpt lat="43.27022" lon="5.6157">
        <ele>477.91247558594</ele>
        <time>2019-02-17T15:45:22Z</time>
      </trkpt>
      <trkpt lat="43.27022" lon="5.61578">
        <ele>476.47058105469</ele>
        <time>2019-02-17T15:45:32Z</time>
      </trkpt>
      <trkpt lat="43.27022" lon="5.61586">
        <ele>474.54797363281</ele>
        <time>2019-02-17T15:45:44Z</time>
      </trkpt>
      <trkpt lat="43.27022" lon="5.6159">
        <ele>474.06726074219</ele>
        <time>2019-02-17T15:45:48Z</time>
      </trkpt>
      <trkpt lat="43.2702" lon="5.61598">
        <ele>471.66394042969</ele>
        <time>2019-02-17T15:45:59Z</time>
      </trkpt>
      <trkpt lat="43.27023" lon="5.61603">
        <ele>470.70263671875</ele>
        <time>2019-02-17T15:46:08Z</time>
      </trkpt>
      <trkpt lat="43.27021" lon="5.61611">
        <ele>469.74133300781</ele>
        <time>2019-02-17T15:46:20Z</time>
      </trkpt>
      <trkpt lat="43.27023" lon="5.6162">
        <ele>469.74133300781</ele>
        <time>2019-02-17T15:46:31Z</time>
      </trkpt>
      <trkpt lat="43.27022" lon="5.61623">
        <ele>470.70263671875</ele>
        <time>2019-02-17T15:46:43Z</time>
      </trkpt>
      <trkpt lat="43.27022" lon="5.6163">
        <ele>470.22192382812</ele>
        <time>2019-02-17T15:46:53Z</time>
      </trkpt>
      <trkpt lat="43.27022" lon="5.61638">
        <ele>469.2607421875</ele>
        <time>2019-02-17T15:47:05Z</time>
      </trkpt>
      <trkpt lat="43.27021" lon="5.61646">
        <ele>468.78002929688</ele>
        <time>2019-02-17T15:47:19Z</time>
      </trkpt>
      <trkpt lat="43.27018" lon="5.61653">
        <ele>469.2607421875</ele>
        <time>2019-02-17T15:47:40Z</time>
      </trkpt>
      <trkpt lat="43.27013" lon="5.61659">
        <ele>469.2607421875</ele>
        <time>2019-02-17T15:47:53Z</time>
      </trkpt>
      <trkpt lat="43.27016" lon="5.61667">
        <ele>470.22192382812</ele>
        <time>2019-02-17T15:48:05Z</time>
      </trkpt>
      <trkpt lat="43.27018" lon="5.61675">
        <ele>470.70263671875</ele>
        <time>2019-02-17T15:48:18Z</time>
      </trkpt>
      <trkpt lat="43.27018" lon="5.61675">
        <ele>470.70263671875</ele>
        <time>2019-02-17T15:48:19Z</time>
      </trkpt>
      <trkpt lat="43.27023" lon="5.61683">
        <ele>469.2607421875</ele>
        <time>2019-02-17T15:48:30Z</time>
      </trkpt>
      <trkpt lat="43.27023" lon="5.61686">
        <ele>469.74133300781</ele>
        <time>2019-02-17T15:48:33Z</time>
      </trkpt>
      <trkpt lat="43.27019" lon="5.61695">
        <ele>470.70263671875</ele>
        <time>2019-02-17T15:48:46Z</time>
      </trkpt>
      <trkpt lat="43.27019" lon="5.61707">
        <ele>470.22192382812</ele>
        <time>2019-02-17T15:49:01Z</time>
      </trkpt>
      <trkpt lat="43.27022" lon="5.6171">
        <ele>471.18334960938</ele>
        <time>2019-02-17T15:49:10Z</time>
      </trkpt>
      <trkpt lat="43.27023" lon="5.61716">
        <ele>469.2607421875</ele>
        <time>2019-02-17T15:49:22Z</time>
      </trkpt>
      <trkpt lat="43.27028" lon="5.61718">
        <ele>470.70263671875</ele>
        <time>2019-02-17T15:49:33Z</time>
      </trkpt>
      <trkpt lat="43.27029" lon="5.61722">
        <ele>471.66394042969</ele>
        <time>2019-02-17T15:49:45Z</time>
      </trkpt>
      <trkpt lat="43.2703" lon="5.61727">
        <ele>472.62536621094</ele>
        <time>2019-02-17T15:49:50Z</time>
      </trkpt>
      <trkpt lat="43.27027" lon="5.61729">
        <ele>475.50927734375</ele>
        <time>2019-02-17T15:50:00Z</time>
      </trkpt>
      <trkpt lat="43.27031" lon="5.61736">
        <ele>477.43188476562</ele>
        <time>2019-02-17T15:50:10Z</time>
      </trkpt>
      <trkpt lat="43.27033" lon="5.61737">
        <ele>478.87390136719</ele>
        <time>2019-02-17T15:50:25Z</time>
      </trkpt>
      <trkpt lat="43.27036" lon="5.61739">
        <ele>481.7578125</ele>
        <time>2019-02-17T15:51:47Z</time>
      </trkpt>
      <trkpt lat="43.27034" lon="5.61743">
        <ele>481.27722167969</ele>
        <time>2019-02-17T15:54:03Z</time>
      </trkpt>
      <trkpt lat="43.27029" lon="5.61749">
        <ele>480.79663085938</ele>
        <time>2019-02-17T15:54:19Z</time>
      </trkpt>
      <trkpt lat="43.27034" lon="5.61748">
        <ele>480.79663085938</ele>
        <time>2019-02-17T15:54:36Z</time>
      </trkpt>
      <trkpt lat="43.27034" lon="5.61762">
        <ele>479.3544921875</ele>
        <time>2019-02-17T15:55:03Z</time>
      </trkpt>
      <trkpt lat="43.27031" lon="5.61768">
        <ele>479.3544921875</ele>
        <time>2019-02-17T15:55:15Z</time>
      </trkpt>
      <trkpt lat="43.27026" lon="5.6177">
        <ele>479.83508300781</ele>
        <time>2019-02-17T15:55:32Z</time>
      </trkpt>
      <trkpt lat="43.27023" lon="5.61778">
        <ele>481.27722167969</ele>
        <time>2019-02-17T15:55:45Z</time>
      </trkpt>
      <trkpt lat="43.27022" lon="5.61786">
        <ele>482.23852539062</ele>
        <time>2019-02-17T15:56:04Z</time>
      </trkpt>
      <trkpt lat="43.27021" lon="5.61795">
        <ele>480.31591796875</ele>
        <time>2019-02-17T15:56:19Z</time>
      </trkpt>
      <trkpt lat="43.27025" lon="5.61805">
        <ele>479.3544921875</ele>
        <time>2019-02-17T15:56:34Z</time>
      </trkpt>
      <trkpt lat="43.27027" lon="5.61811">
        <ele>478.87390136719</ele>
        <time>2019-02-17T15:56:51Z</time>
      </trkpt>
      <trkpt lat="43.27022" lon="5.61815">
        <ele>478.87390136719</ele>
        <time>2019-02-17T15:57:05Z</time>
      </trkpt>
      <trkpt lat="43.27015" lon="5.61817">
        <ele>477.91247558594</ele>
        <time>2019-02-17T15:57:20Z</time>
      </trkpt>
      <trkpt lat="43.27012" lon="5.61822">
        <ele>476.47058105469</ele>
        <time>2019-02-17T15:57:33Z</time>
      </trkpt>
      <trkpt lat="43.27011" lon="5.61831">
        <ele>475.50927734375</ele>
        <time>2019-02-17T15:57:46Z</time>
      </trkpt>
      <trkpt lat="43.27012" lon="5.61841">
        <ele>475.02868652344</ele>
        <time>2019-02-17T15:57:59Z</time>
      </trkpt>
      <trkpt lat="43.27008" lon="5.6185">
        <ele>474.06726074219</ele>
        <time>2019-02-17T15:58:16Z</time>
      </trkpt>
      <trkpt lat="43.27002" lon="5.61855">
        <ele>471.66394042969</ele>
        <time>2019-02-17T15:58:30Z</time>
      </trkpt>
      <trkpt lat="43.27004" lon="5.61864">
        <ele>471.66394042969</ele>
        <time>2019-02-17T15:58:42Z</time>
      </trkpt>
      <trkpt lat="43.26997" lon="5.61872">
        <ele>471.66394042969</ele>
        <time>2019-02-17T15:58:56Z</time>
      </trkpt>
      <trkpt lat="43.26997" lon="5.61875">
        <ele>470.70263671875</ele>
        <time>2019-02-17T15:58:59Z</time>
      </trkpt>
      <trkpt lat="43.26993" lon="5.61883">
        <ele>469.2607421875</ele>
        <time>2019-02-17T15:59:09Z</time>
      </trkpt>
      <trkpt lat="43.26992" lon="5.61884">
        <ele>469.2607421875</ele>
        <time>2019-02-17T15:59:10Z</time>
      </trkpt>
      <trkpt lat="43.26992" lon="5.61909">
        <ele>469.2607421875</ele>
        <time>2019-02-17T15:59:25Z</time>
      </trkpt>
      <trkpt lat="43.26992" lon="5.6192">
        <ele>467.81872558594</ele>
        <time>2019-02-17T15:59:36Z</time>
      </trkpt>
      <trkpt lat="43.26989" lon="5.61929">
        <ele>467.33813476562</ele>
        <time>2019-02-17T15:59:47Z</time>
      </trkpt>
      <trkpt lat="43.26989" lon="5.61934">
        <ele>466.857421875</ele>
        <time>2019-02-17T15:59:49Z</time>
      </trkpt>
      <trkpt lat="43.26984" lon="5.61939">
        <ele>463.97338867188</ele>
        <time>2019-02-17T16:00:00Z</time>
      </trkpt>
      <trkpt lat="43.26984" lon="5.61939">
        <ele>463.97338867188</ele>
        <time>2019-02-17T16:00:01Z</time>
      </trkpt>
      <trkpt lat="43.26985" lon="5.61961">
        <ele>464.4541015625</ele>
        <time>2019-02-17T16:00:13Z</time>
      </trkpt>
      <trkpt lat="43.26985" lon="5.61974">
        <ele>463.49279785156</ele>
        <time>2019-02-17T16:00:26Z</time>
      </trkpt>
      <trkpt lat="43.26981" lon="5.61981">
        <ele>463.01208496094</ele>
        <time>2019-02-17T16:00:38Z</time>
      </trkpt>
      <trkpt lat="43.26981" lon="5.61989">
        <ele>459.16687011719</ele>
        <time>2019-02-17T16:00:50Z</time>
      </trkpt>
      <trkpt lat="43.26982" lon="5.61994">
        <ele>458.68615722656</ele>
        <time>2019-02-17T16:00:55Z</time>
      </trkpt>
      <trkpt lat="43.26992" lon="5.62">
        <ele>455.80224609375</ele>
        <time>2019-02-17T16:01:07Z</time>
      </trkpt>
      <trkpt lat="43.27" lon="5.62002">
        <ele>453.39892578125</ele>
        <time>2019-02-17T16:01:19Z</time>
      </trkpt>
      <trkpt lat="43.27004" lon="5.6201">
        <ele>449.5537109375</ele>
        <time>2019-02-17T16:01:31Z</time>
      </trkpt>
      <trkpt lat="43.27002" lon="5.62014">
        <ele>448.59240722656</ele>
        <time>2019-02-17T16:01:34Z</time>
      </trkpt>
      <trkpt lat="43.27004" lon="5.62022">
        <ele>448.11181640625</ele>
        <time>2019-02-17T16:01:40Z</time>
      </trkpt>
      <trkpt lat="43.27006" lon="5.62028">
        <ele>448.11181640625</ele>
        <time>2019-02-17T16:01:47Z</time>
      </trkpt>
      <trkpt lat="43.2701" lon="5.62037">
        <ele>446.66967773438</ele>
        <time>2019-02-17T16:01:58Z</time>
      </trkpt>
      <trkpt lat="43.27008" lon="5.62046">
        <ele>444.26647949219</ele>
        <time>2019-02-17T16:02:09Z</time>
      </trkpt>
      <trkpt lat="43.27002" lon="5.62051">
        <ele>440.90185546875</ele>
        <time>2019-02-17T16:02:22Z</time>
      </trkpt>
      <trkpt lat="43.27009" lon="5.62062">
        <ele>440.42126464844</ele>
        <time>2019-02-17T16:02:36Z</time>
      </trkpt>
      <trkpt lat="43.27008" lon="5.62069">
        <ele>438.97912597656</ele>
        <time>2019-02-17T16:02:49Z</time>
      </trkpt>
      <trkpt lat="43.27005" lon="5.6207">
        <ele>437.537109375</ele>
        <time>2019-02-17T16:02:54Z</time>
      </trkpt>
      <trkpt lat="43.27002" lon="5.62079">
        <ele>434.17260742188</ele>
        <time>2019-02-17T16:03:06Z</time>
      </trkpt>
      <trkpt lat="43.26999" lon="5.62088">
        <ele>431.28857421875</ele>
        <time>2019-02-17T16:03:19Z</time>
      </trkpt>
      <trkpt lat="43.27002" lon="5.621">
        <ele>429.36596679688</ele>
        <time>2019-02-17T16:03:32Z</time>
      </trkpt>
      <trkpt lat="43.27005" lon="5.62103">
        <ele>428.88537597656</ele>
        <time>2019-02-17T16:03:44Z</time>
      </trkpt>
      <trkpt lat="43.27004" lon="5.62111">
        <ele>426.00134277344</ele>
        <time>2019-02-17T16:03:56Z</time>
      </trkpt>
      <trkpt lat="43.27006" lon="5.62118">
        <ele>423.11743164062</ele>
        <time>2019-02-17T16:04:18Z</time>
      </trkpt>
      <trkpt lat="43.27008" lon="5.62123">
        <ele>421.19482421875</ele>
        <time>2019-02-17T16:04:36Z</time>
      </trkpt>
      <trkpt lat="43.27009" lon="5.62122">
        <ele>421.19482421875</ele>
        <time>2019-02-17T16:04:54Z</time>
      </trkpt>
      <trkpt lat="43.27005" lon="5.62124">
        <ele>419.75280761719</ele>
        <time>2019-02-17T16:05:16Z</time>
      </trkpt>
      <trkpt lat="43.27002" lon="5.62127">
        <ele>419.27221679688</ele>
        <time>2019-02-17T16:05:43Z</time>
      </trkpt>
      <trkpt lat="43.26999" lon="5.62132">
        <ele>417.349609375</ele>
        <time>2019-02-17T16:06:16Z</time>
      </trkpt>
      <trkpt lat="43.26999" lon="5.62138">
        <ele>415.42687988281</ele>
        <time>2019-02-17T16:06:30Z</time>
      </trkpt>
      <trkpt lat="43.26995" lon="5.62143">
        <ele>414.46545410156</ele>
        <time>2019-02-17T16:06:47Z</time>
      </trkpt>
      <trkpt lat="43.26992" lon="5.62147">
        <ele>413.02355957031</ele>
        <time>2019-02-17T16:07:02Z</time>
      </trkpt>
      <trkpt lat="43.26986" lon="5.62149">
        <ele>411.58166503906</ele>
        <time>2019-02-17T16:07:22Z</time>
      </trkpt>
      <trkpt lat="43.26984" lon="5.62151">
        <ele>410.1396484375</ele>
        <time>2019-02-17T16:07:39Z</time>
      </trkpt>
      <trkpt lat="43.26983" lon="5.62159">
        <ele>409.65905761719</ele>
        <time>2019-02-17T16:07:57Z</time>
      </trkpt>
      <trkpt lat="43.26983" lon="5.62163">
        <ele>408.21704101562</ele>
        <time>2019-02-17T16:08:09Z</time>
      </trkpt>
      <trkpt lat="43.2698" lon="5.62169">
        <ele>408.69763183594</ele>
        <time>2019-02-17T16:08:25Z</time>
      </trkpt>
      <trkpt lat="43.26977" lon="5.62174">
        <ele>405.81372070312</ele>
        <time>2019-02-17T16:08:40Z</time>
      </trkpt>
      <trkpt lat="43.26981" lon="5.62182">
        <ele>406.77490234375</ele>
        <time>2019-02-17T16:08:56Z</time>
      </trkpt>
      <trkpt lat="43.26983" lon="5.62189">
        <ele>405.81372070312</ele>
        <time>2019-02-17T16:09:12Z</time>
      </trkpt>
      <trkpt lat="43.26982" lon="5.62192">
        <ele>405.3330078125</ele>
        <time>2019-02-17T16:09:28Z</time>
      </trkpt>
      <trkpt lat="43.26979" lon="5.62197">
        <ele>403.41040039062</ele>
        <time>2019-02-17T16:09:34Z</time>
      </trkpt>
      <trkpt lat="43.26976" lon="5.62207">
        <ele>400.0458984375</ele>
        <time>2019-02-17T16:09:47Z</time>
      </trkpt>
      <trkpt lat="43.26981" lon="5.62217">
        <ele>397.16174316406</ele>
        <time>2019-02-17T16:10:03Z</time>
      </trkpt>
      <trkpt lat="43.26978" lon="5.62224">
        <ele>395.23913574219</ele>
        <time>2019-02-17T16:10:16Z</time>
      </trkpt>
      <trkpt lat="43.26977" lon="5.62235">
        <ele>394.27795410156</ele>
        <time>2019-02-17T16:10:27Z</time>
      </trkpt>
      <trkpt lat="43.26975" lon="5.62244">
        <ele>391.87451171875</ele>
        <time>2019-02-17T16:10:42Z</time>
      </trkpt>
      <trkpt lat="43.26969" lon="5.62247">
        <ele>389.47119140625</ele>
        <time>2019-02-17T16:10:55Z</time>
      </trkpt>
      <trkpt lat="43.26962" lon="5.62253">
        <ele>385.14538574219</ele>
        <time>2019-02-17T16:11:10Z</time>
      </trkpt>
      <trkpt lat="43.26963" lon="5.62261">
        <ele>382.26135253906</ele>
        <time>2019-02-17T16:11:26Z</time>
      </trkpt>
      <trkpt lat="43.26962" lon="5.62266">
        <ele>379.85803222656</ele>
        <time>2019-02-17T16:11:38Z</time>
      </trkpt>
      <trkpt lat="43.26961" lon="5.62272">
        <ele>378.89685058594</ele>
        <time>2019-02-17T16:11:54Z</time>
      </trkpt>
      <trkpt lat="43.26956" lon="5.62276">
        <ele>378.41613769531</ele>
        <time>2019-02-17T16:12:08Z</time>
      </trkpt>
      <trkpt lat="43.26953" lon="5.6228">
        <ele>377.93542480469</ele>
        <time>2019-02-17T16:12:37Z</time>
      </trkpt>
      <trkpt lat="43.26949" lon="5.62279">
        <ele>376.97424316406</ele>
        <time>2019-02-17T16:12:55Z</time>
      </trkpt>
      <trkpt lat="43.26948" lon="5.6228">
        <ele>376.49353027344</ele>
        <time>2019-02-17T16:13:10Z</time>
      </trkpt>
      <trkpt lat="43.26944" lon="5.62287">
        <ele>374.57080078125</ele>
        <time>2019-02-17T16:13:27Z</time>
      </trkpt>
      <trkpt lat="43.2694" lon="5.6229">
        <ele>373.12890625</ele>
        <time>2019-02-17T16:13:41Z</time>
      </trkpt>
      <trkpt lat="43.26939" lon="5.62293">
        <ele>372.64819335938</ele>
        <time>2019-02-17T16:13:53Z</time>
      </trkpt>
      <trkpt lat="43.26936" lon="5.62299">
        <ele>371.68688964844</ele>
        <time>2019-02-17T16:14:10Z</time>
      </trkpt>
      <trkpt lat="43.26934" lon="5.62302">
        <ele>370.7255859375</ele>
        <time>2019-02-17T16:14:21Z</time>
      </trkpt>
      <trkpt lat="43.26931" lon="5.623">
        <ele>369.76428222656</ele>
        <time>2019-02-17T16:14:24Z</time>
      </trkpt>
      <trkpt lat="43.26928" lon="5.62302">
        <ele>367.84155273438</ele>
        <time>2019-02-17T16:14:36Z</time>
      </trkpt>
      <trkpt lat="43.26924" lon="5.62305">
        <ele>366.88024902344</ele>
        <time>2019-02-17T16:14:50Z</time>
      </trkpt>
      <trkpt lat="43.26921" lon="5.6231">
        <ele>363.51574707031</ele>
        <time>2019-02-17T16:15:08Z</time>
      </trkpt>
      <trkpt lat="43.26916" lon="5.62317">
        <ele>361.11242675781</ele>
        <time>2019-02-17T16:15:50Z</time>
      </trkpt>
      <trkpt lat="43.26914" lon="5.62318">
        <ele>360.63171386719</ele>
        <time>2019-02-17T16:15:55Z</time>
      </trkpt>
      <trkpt lat="43.26908" lon="5.62321">
        <ele>356.30578613281</ele>
        <time>2019-02-17T16:16:12Z</time>
      </trkpt>
      <trkpt lat="43.26904" lon="5.62325">
        <ele>354.38317871094</ele>
        <time>2019-02-17T16:16:32Z</time>
      </trkpt>
      <trkpt lat="43.26902" lon="5.62333">
        <ele>351.49914550781</ele>
        <time>2019-02-17T16:16:51Z</time>
      </trkpt>
      <trkpt lat="43.26896" lon="5.62337">
        <ele>347.17321777344</ele>
        <time>2019-02-17T16:17:10Z</time>
      </trkpt>
      <trkpt lat="43.26895" lon="5.62339">
        <ele>343.80859375</ele>
        <time>2019-02-17T16:17:38Z</time>
      </trkpt>
      <trkpt lat="43.26902" lon="5.62341">
        <ele>344.28942871094</ele>
        <time>2019-02-17T16:17:52Z</time>
      </trkpt>
      <trkpt lat="43.26913" lon="5.62342">
        <ele>350.53784179688</ele>
        <time>2019-02-17T16:18:06Z</time>
      </trkpt>
      <trkpt lat="43.26927" lon="5.62343">
        <ele>357.74780273438</ele>
        <time>2019-02-17T16:18:21Z</time>
      </trkpt>
      <trkpt lat="43.2694" lon="5.62345">
        <ele>364.95764160156</ele>
        <time>2019-02-17T16:18:34Z</time>
      </trkpt>
      <trkpt lat="43.26942" lon="5.62345">
        <ele>365.43835449219</ele>
        <time>2019-02-17T16:18:36Z</time>
      </trkpt>
      <trkpt lat="43.26948" lon="5.6234">
        <ele>370.24487304688</ele>
        <time>2019-02-17T16:18:59Z</time>
      </trkpt>
      <trkpt lat="43.26941" lon="5.62344">
        <ele>366.39953613281</ele>
        <time>2019-02-17T16:19:40Z</time>
      </trkpt>
      <trkpt lat="43.26921" lon="5.62342">
        <ele>361.59313964844</ele>
        <time>2019-02-17T16:19:57Z</time>
      </trkpt>
      <trkpt lat="43.26918" lon="5.62343">
        <ele>361.11242675781</ele>
        <time>2019-02-17T16:20:00Z</time>
      </trkpt>
      <trkpt lat="43.26916" lon="5.62344">
        <ele>361.11242675781</ele>
        <time>2019-02-17T16:20:02Z</time>
      </trkpt>
      <trkpt lat="43.26895" lon="5.62346">
        <ele>359.67041015625</ele>
        <time>2019-02-17T16:20:21Z</time>
      </trkpt>
      <trkpt lat="43.26883" lon="5.62349">
        <ele>358.708984375</ele>
        <time>2019-02-17T16:20:32Z</time>
      </trkpt>
      <trkpt lat="43.2688" lon="5.62349">
        <ele>358.708984375</ele>
        <time>2019-02-17T16:20:36Z</time>
      </trkpt>
      <trkpt lat="43.26864" lon="5.6235">
        <ele>357.74780273438</ele>
        <time>2019-02-17T16:20:48Z</time>
      </trkpt>
      <trkpt lat="43.26858" lon="5.62343">
        <ele>357.74780273438</ele>
        <time>2019-02-17T16:20:57Z</time>
      </trkpt>
      <trkpt lat="43.26846" lon="5.6234">
        <ele>356.78637695312</ele>
        <time>2019-02-17T16:21:06Z</time>
      </trkpt>
      <trkpt lat="43.26841" lon="5.62334">
        <ele>357.26708984375</ele>
        <time>2019-02-17T16:21:13Z</time>
      </trkpt>
      <trkpt lat="43.26831" lon="5.62324">
        <ele>355.8251953125</ele>
        <time>2019-02-17T16:21:24Z</time>
      </trkpt>
      <trkpt lat="43.26822" lon="5.62319">
        <ele>355.34448242188</ele>
        <time>2019-02-17T16:21:32Z</time>
      </trkpt>
      <trkpt lat="43.26811" lon="5.6231">
        <ele>353.421875</ele>
        <time>2019-02-17T16:21:41Z</time>
      </trkpt>
      <trkpt lat="43.26809" lon="5.62307">
        <ele>351.01843261719</ele>
        <time>2019-02-17T16:21:48Z</time>
      </trkpt>
      <trkpt lat="43.26806" lon="5.62303">
        <ele>350.05725097656</ele>
        <time>2019-02-17T16:21:52Z</time>
      </trkpt>
      <trkpt lat="43.26801" lon="5.62303">
        <ele>347.65393066406</ele>
        <time>2019-02-17T16:21:57Z</time>
      </trkpt>
      <trkpt lat="43.26803" lon="5.62312">
        <ele>346.69262695312</ele>
        <time>2019-02-17T16:22:02Z</time>
      </trkpt>
      <trkpt lat="43.26807" lon="5.62319">
        <ele>347.17321777344</ele>
        <time>2019-02-17T16:22:18Z</time>
      </trkpt>
      <trkpt lat="43.26808" lon="5.62327">
        <ele>347.65393066406</ele>
        <time>2019-02-17T16:22:31Z</time>
      </trkpt>
      <trkpt lat="43.26811" lon="5.62335">
        <ele>349.09582519531</ele>
        <time>2019-02-17T16:22:38Z</time>
      </trkpt>
      <trkpt lat="43.26814" lon="5.62344">
        <ele>350.53784179688</ele>
        <time>2019-02-17T16:22:42Z</time>
      </trkpt>
      <trkpt lat="43.26817" lon="5.62354">
        <ele>348.615234375</ele>
        <time>2019-02-17T16:22:54Z</time>
      </trkpt>
      <trkpt lat="43.26821" lon="5.62364">
        <ele>349.57653808594</ele>
        <time>2019-02-17T16:23:10Z</time>
      </trkpt>
      <trkpt lat="43.26823" lon="5.6237">
        <ele>349.09582519531</ele>
        <time>2019-02-17T16:23:28Z</time>
      </trkpt>
      <trkpt lat="43.26826" lon="5.62383">
        <ele>349.09582519531</ele>
        <time>2019-02-17T16:23:43Z</time>
      </trkpt>
      <trkpt lat="43.26827" lon="5.6239">
        <ele>347.65393066406</ele>
        <time>2019-02-17T16:23:50Z</time>
      </trkpt>
      <trkpt lat="43.26829" lon="5.62396">
        <ele>346.69262695312</ele>
        <time>2019-02-17T16:23:54Z</time>
      </trkpt>
      <trkpt lat="43.26833" lon="5.62401">
        <ele>345.73132324219</ele>
        <time>2019-02-17T16:24:00Z</time>
      </trkpt>
      <trkpt lat="43.2684" lon="5.62407">
        <ele>345.25061035156</ele>
        <time>2019-02-17T16:24:06Z</time>
      </trkpt>
      <trkpt lat="43.26847" lon="5.62414">
        <ele>345.25061035156</ele>
        <time>2019-02-17T16:24:14Z</time>
      </trkpt>
      <trkpt lat="43.26858" lon="5.62433">
        <ele>345.73132324219</ele>
        <time>2019-02-17T16:24:26Z</time>
      </trkpt>
      <trkpt lat="43.26863" lon="5.6244">
        <ele>347.17321777344</ele>
        <time>2019-02-17T16:24:38Z</time>
      </trkpt>
      <trkpt lat="43.26871" lon="5.62446">
        <ele>344.77001953125</ele>
        <time>2019-02-17T16:24:51Z</time>
      </trkpt>
      <trkpt lat="43.26871" lon="5.62447">
        <ele>344.77001953125</ele>
        <time>2019-02-17T16:24:52Z</time>
      </trkpt>
      <trkpt lat="43.26876" lon="5.62452">
        <ele>341.88598632812</ele>
        <time>2019-02-17T16:25:07Z</time>
      </trkpt>
      <trkpt lat="43.26887" lon="5.62457">
        <ele>338.521484375</ele>
        <time>2019-02-17T16:25:24Z</time>
      </trkpt>
      <trkpt lat="43.26895" lon="5.62463">
        <ele>335.63732910156</ele>
        <time>2019-02-17T16:25:36Z</time>
      </trkpt>
      <trkpt lat="43.26898" lon="5.62467">
        <ele>332.27282714844</ele>
        <time>2019-02-17T16:25:42Z</time>
      </trkpt>
      <trkpt lat="43.26904" lon="5.62474">
        <ele>329.86950683594</ele>
        <time>2019-02-17T16:25:55Z</time>
      </trkpt>
      <trkpt lat="43.26913" lon="5.62483">
        <ele>328.42761230469</ele>
        <time>2019-02-17T16:26:14Z</time>
      </trkpt>
      <trkpt lat="43.26918" lon="5.62489">
        <ele>326.02416992188</ele>
        <time>2019-02-17T16:26:19Z</time>
      </trkpt>
      <trkpt lat="43.26924" lon="5.62493">
        <ele>326.02416992188</ele>
        <time>2019-02-17T16:26:24Z</time>
      </trkpt>
      <trkpt lat="43.26926" lon="5.62494">
        <ele>326.02416992188</ele>
        <time>2019-02-17T16:26:27Z</time>
      </trkpt>
      <trkpt lat="43.26932" lon="5.625">
        <ele>323.14038085938</ele>
        <time>2019-02-17T16:26:34Z</time>
      </trkpt>
      <trkpt lat="43.26938" lon="5.62511">
        <ele>322.65966796875</ele>
        <time>2019-02-17T16:26:41Z</time>
      </trkpt>
      <trkpt lat="43.26945" lon="5.6252">
        <ele>326.02416992188</ele>
        <time>2019-02-17T16:26:52Z</time>
      </trkpt>
      <trkpt lat="43.26949" lon="5.62533">
        <ele>324.58227539062</ele>
        <time>2019-02-17T16:27:02Z</time>
      </trkpt>
      <trkpt lat="43.26956" lon="5.62549">
        <ele>323.62097167969</ele>
        <time>2019-02-17T16:27:14Z</time>
      </trkpt>
      <trkpt lat="43.26963" lon="5.6256">
        <ele>325.06298828125</ele>
        <time>2019-02-17T16:27:23Z</time>
      </trkpt>
      <trkpt lat="43.26965" lon="5.62568">
        <ele>320.25634765625</ele>
        <time>2019-02-17T16:27:33Z</time>
      </trkpt>
      <trkpt lat="43.26975" lon="5.6258">
        <ele>319.29504394531</ele>
        <time>2019-02-17T16:27:46Z</time>
      </trkpt>
      <trkpt lat="43.26976" lon="5.62583">
        <ele>318.81433105469</ele>
        <time>2019-02-17T16:27:47Z</time>
      </trkpt>
      <trkpt lat="43.26983" lon="5.62587">
        <ele>318.81433105469</ele>
        <time>2019-02-17T16:27:53Z</time>
      </trkpt>
      <trkpt lat="43.26991" lon="5.62601">
        <ele>319.29504394531</ele>
        <time>2019-02-17T16:28:03Z</time>
      </trkpt>
      <trkpt lat="43.27001" lon="5.62608">
        <ele>317.85302734375</ele>
        <time>2019-02-17T16:28:17Z</time>
      </trkpt>
      <trkpt lat="43.27005" lon="5.62618">
        <ele>315.93041992188</ele>
        <time>2019-02-17T16:28:25Z</time>
      </trkpt>
      <trkpt lat="43.27015" lon="5.62631">
        <ele>314.0078125</ele>
        <time>2019-02-17T16:28:34Z</time>
      </trkpt>
      <trkpt lat="43.27017" lon="5.62634">
        <ele>314.48840332031</ele>
        <time>2019-02-17T16:28:36Z</time>
      </trkpt>
      <trkpt lat="43.2702" lon="5.6264">
        <ele>315.44982910156</ele>
        <time>2019-02-17T16:28:39Z</time>
      </trkpt>
      <trkpt lat="43.27028" lon="5.6265">
        <ele>313.04650878906</ele>
        <time>2019-02-17T16:28:52Z</time>
      </trkpt>
      <trkpt lat="43.27031" lon="5.62656">
        <ele>312.56579589844</ele>
        <time>2019-02-17T16:29:07Z</time>
      </trkpt>
      <trkpt lat="43.27038" lon="5.62678">
        <ele>312.08520507812</ele>
        <time>2019-02-17T16:29:20Z</time>
      </trkpt>
      <trkpt lat="43.27051" lon="5.62697">
        <ele>311.12377929688</ele>
        <time>2019-02-17T16:29:38Z</time>
      </trkpt>
      <trkpt lat="43.27058" lon="5.62705">
        <ele>308.72045898438</ele>
        <time>2019-02-17T16:29:49Z</time>
      </trkpt>
      <trkpt lat="43.27062" lon="5.62719">
        <ele>306.7978515625</ele>
        <time>2019-02-17T16:30:03Z</time>
      </trkpt>
      <trkpt lat="43.27065" lon="5.62731">
        <ele>303.43322753906</ele>
        <time>2019-02-17T16:30:17Z</time>
      </trkpt>
      <trkpt lat="43.27071" lon="5.62746">
        <ele>301.02990722656</ele>
        <time>2019-02-17T16:30:30Z</time>
      </trkpt>
      <trkpt lat="43.27075" lon="5.62758">
        <ele>298.14611816406</ele>
        <time>2019-02-17T16:30:41Z</time>
      </trkpt>
      <trkpt lat="43.27076" lon="5.62761">
        <ele>297.18469238281</ele>
        <time>2019-02-17T16:30:44Z</time>
      </trkpt>
      <trkpt lat="43.27081" lon="5.62775">
        <ele>291.8974609375</ele>
        <time>2019-02-17T16:30:57Z</time>
      </trkpt>
      <trkpt lat="43.27083" lon="5.62792">
        <ele>287.0908203125</ele>
        <time>2019-02-17T16:31:14Z</time>
      </trkpt>
      <trkpt lat="43.27085" lon="5.62797">
        <ele>286.12951660156</ele>
        <time>2019-02-17T16:31:19Z</time>
      </trkpt>
      <trkpt lat="43.27089" lon="5.62809">
        <ele>284.20690917969</ele>
        <time>2019-02-17T16:31:31Z</time>
      </trkpt>
      <trkpt lat="43.27095" lon="5.62824">
        <ele>281.80358886719</ele>
        <time>2019-02-17T16:31:41Z</time>
      </trkpt>
      <trkpt lat="43.27097" lon="5.6283">
        <ele>281.80358886719</ele>
        <time>2019-02-17T16:31:45Z</time>
      </trkpt>
      <trkpt lat="43.27098" lon="5.62837">
        <ele>282.28430175781</ele>
        <time>2019-02-17T16:31:49Z</time>
      </trkpt>
      <trkpt lat="43.27104" lon="5.6285">
        <ele>281.80358886719</ele>
        <time>2019-02-17T16:32:02Z</time>
      </trkpt>
      <trkpt lat="43.27105" lon="5.6286">
        <ele>282.76501464844</ele>
        <time>2019-02-17T16:32:07Z</time>
      </trkpt>
      <trkpt lat="43.27107" lon="5.62868">
        <ele>279.880859375</ele>
        <time>2019-02-17T16:32:12Z</time>
      </trkpt>
      <trkpt lat="43.2711" lon="5.62872">
        <ele>278.43896484375</ele>
        <time>2019-02-17T16:32:16Z</time>
      </trkpt>
      <trkpt lat="43.27114" lon="5.62882">
        <ele>275.07446289062</ele>
        <time>2019-02-17T16:32:23Z</time>
      </trkpt>
      <trkpt lat="43.27117" lon="5.62894">
        <ele>270.74841308594</ele>
        <time>2019-02-17T16:32:31Z</time>
      </trkpt>
      <trkpt lat="43.2712" lon="5.62902">
        <ele>270.26770019531</ele>
        <time>2019-02-17T16:32:35Z</time>
      </trkpt>
      <trkpt lat="43.27127" lon="5.6292">
        <ele>268.34509277344</ele>
        <time>2019-02-17T16:32:47Z</time>
      </trkpt>
      <trkpt lat="43.27133" lon="5.62935">
        <ele>267.38391113281</ele>
        <time>2019-02-17T16:32:56Z</time>
      </trkpt>
      <trkpt lat="43.27134" lon="5.62949">
        <ele>262.09655761719</ele>
        <time>2019-02-17T16:33:13Z</time>
      </trkpt>
      <trkpt lat="43.27134" lon="5.62953">
        <ele>261.13525390625</ele>
        <time>2019-02-17T16:34:26Z</time>
      </trkpt>
      <trkpt lat="43.27131" lon="5.62962">
        <ele>261.13525390625</ele>
        <time>2019-02-17T16:34:38Z</time>
      </trkpt>
      <trkpt lat="43.2713" lon="5.62963">
        <ele>261.13525390625</ele>
        <time>2019-02-17T16:34:39Z</time>
      </trkpt>
      <trkpt lat="43.27119" lon="5.62959">
        <ele>259.693359375</ele>
        <time>2019-02-17T16:34:52Z</time>
      </trkpt>
      <trkpt lat="43.27116" lon="5.62958">
        <ele>259.21264648438</ele>
        <time>2019-02-17T16:34:57Z</time>
      </trkpt>
      <trkpt lat="43.27105" lon="5.62952">
        <ele>256.80932617188</ele>
        <time>2019-02-17T16:35:10Z</time>
      </trkpt>
      <trkpt lat="43.27099" lon="5.62949">
        <ele>256.80932617188</ele>
        <time>2019-02-17T16:35:17Z</time>
      </trkpt>
      <trkpt lat="43.2709" lon="5.62947">
        <ele>256.80932617188</ele>
        <time>2019-02-17T16:35:23Z</time>
      </trkpt>
      <trkpt lat="43.27081" lon="5.62953">
        <ele>255.36730957031</ele>
        <time>2019-02-17T16:35:36Z</time>
      </trkpt>
      <trkpt lat="43.27081" lon="5.62971">
        <ele>254.88659667969</ele>
        <time>2019-02-17T16:35:54Z</time>
      </trkpt>
      <trkpt lat="43.27082" lon="5.62986">
        <ele>253.92541503906</ele>
        <time>2019-02-17T16:36:07Z</time>
      </trkpt>
      <trkpt lat="43.27085" lon="5.63005">
        <ele>252.96398925781</ele>
        <time>2019-02-17T16:36:22Z</time>
      </trkpt>
      <trkpt lat="43.27086" lon="5.63018">
        <ele>250.08020019531</ele>
        <time>2019-02-17T16:36:32Z</time>
      </trkpt>
      <trkpt lat="43.27086" lon="5.63025">
        <ele>249.11877441406</ele>
        <time>2019-02-17T16:36:39Z</time>
      </trkpt>
      <trkpt lat="43.27091" lon="5.63031">
        <ele>245.75415039062</ele>
        <time>2019-02-17T16:36:49Z</time>
      </trkpt>
      <trkpt lat="43.271" lon="5.63042">
        <ele>246.23486328125</ele>
        <time>2019-02-17T16:37:04Z</time>
      </trkpt>
      <trkpt lat="43.2711" lon="5.63061">
        <ele>244.79284667969</ele>
        <time>2019-02-17T16:37:17Z</time>
      </trkpt>
      <trkpt lat="43.27113" lon="5.63063">
        <ele>243.35083007812</ele>
        <time>2019-02-17T16:37:20Z</time>
      </trkpt>
      <trkpt lat="43.27121" lon="5.63069">
        <ele>240.94763183594</ele>
        <time>2019-02-17T16:37:26Z</time>
      </trkpt>
      <trkpt lat="43.27131" lon="5.63079">
        <ele>240.46704101562</ele>
        <time>2019-02-17T16:37:38Z</time>
      </trkpt>
      <trkpt lat="43.27136" lon="5.63085">
        <ele>234.21838378906</ele>
        <time>2019-02-17T16:37:52Z</time>
      </trkpt>
      <trkpt lat="43.27139" lon="5.63089">
        <ele>234.21838378906</ele>
        <time>2019-02-17T16:38:20Z</time>
      </trkpt>
      <trkpt lat="43.27143" lon="5.63093">
        <ele>233.25708007812</ele>
        <time>2019-02-17T16:38:38Z</time>
      </trkpt>
      <trkpt lat="43.27151" lon="5.63098">
        <ele>232.29577636719</ele>
        <time>2019-02-17T16:38:50Z</time>
      </trkpt>
      <trkpt lat="43.27159" lon="5.63109">
        <ele>230.85375976562</ele>
        <time>2019-02-17T16:38:58Z</time>
      </trkpt>
      <trkpt lat="43.27166" lon="5.63115">
        <ele>228.93115234375</ele>
        <time>2019-02-17T16:39:04Z</time>
      </trkpt>
      <trkpt lat="43.27173" lon="5.6313">
        <ele>226.52783203125</ele>
        <time>2019-02-17T16:39:16Z</time>
      </trkpt>
      <trkpt lat="43.27178" lon="5.63146">
        <ele>224.12451171875</ele>
        <time>2019-02-17T16:39:28Z</time>
      </trkpt>
      <trkpt lat="43.27179" lon="5.6316">
        <ele>224.12451171875</ele>
        <time>2019-02-17T16:39:37Z</time>
      </trkpt>
      <trkpt lat="43.2718" lon="5.63162">
        <ele>222.68249511719</ele>
        <time>2019-02-17T16:39:39Z</time>
      </trkpt>
      <trkpt lat="43.27183" lon="5.63175">
        <ele>219.31799316406</ele>
        <time>2019-02-17T16:39:45Z</time>
      </trkpt>
      <trkpt lat="43.27185" lon="5.63181">
        <ele>217.39538574219</ele>
        <time>2019-02-17T16:39:51Z</time>
      </trkpt>
      <trkpt lat="43.27186" lon="5.63192">
        <ele>216.43395996094</ele>
        <time>2019-02-17T16:39:55Z</time>
      </trkpt>
      <trkpt lat="43.27183" lon="5.63204">
        <ele>212.58862304688</ele>
        <time>2019-02-17T16:40:01Z</time>
      </trkpt>
      <trkpt lat="43.27181" lon="5.63213">
        <ele>210.18542480469</ele>
        <time>2019-02-17T16:40:05Z</time>
      </trkpt>
      <trkpt lat="43.27181" lon="5.63221">
        <ele>208.26281738281</ele>
        <time>2019-02-17T16:40:09Z</time>
      </trkpt>
      <trkpt lat="43.27187" lon="5.63232">
        <ele>201.05285644531</ele>
        <time>2019-02-17T16:40:21Z</time>
      </trkpt>
      <trkpt lat="43.27193" lon="5.63246">
        <ele>200.09167480469</ele>
        <time>2019-02-17T16:40:30Z</time>
      </trkpt>
      <trkpt lat="43.27197" lon="5.63254">
        <ele>198.1689453125</ele>
        <time>2019-02-17T16:40:35Z</time>
      </trkpt>
      <trkpt lat="43.27197" lon="5.63264">
        <ele>199.13012695312</ele>
        <time>2019-02-17T16:40:39Z</time>
      </trkpt>
      <trkpt lat="43.27199" lon="5.63271">
        <ele>199.13012695312</ele>
        <time>2019-02-17T16:40:42Z</time>
      </trkpt>
      <trkpt lat="43.27205" lon="5.63278">
        <ele>201.05285644531</ele>
        <time>2019-02-17T16:40:46Z</time>
      </trkpt>
      <trkpt lat="43.27208" lon="5.63299">
        <ele>202.49487304688</ele>
        <time>2019-02-17T16:40:59Z</time>
      </trkpt>
      <trkpt lat="43.27208" lon="5.63301">
        <ele>202.01428222656</ele>
        <time>2019-02-17T16:41:00Z</time>
      </trkpt>
      <trkpt lat="43.27204" lon="5.63315">
        <ele>201.53356933594</ele>
        <time>2019-02-17T16:41:10Z</time>
      </trkpt>
      <trkpt lat="43.27204" lon="5.63321">
        <ele>201.05285644531</ele>
        <time>2019-02-17T16:41:13Z</time>
      </trkpt>
      <trkpt lat="43.27206" lon="5.63343">
        <ele>201.05285644531</ele>
        <time>2019-02-17T16:41:26Z</time>
      </trkpt>
      <trkpt lat="43.27206" lon="5.63356">
        <ele>200.09167480469</ele>
        <time>2019-02-17T16:41:34Z</time>
      </trkpt>
      <trkpt lat="43.27211" lon="5.63365">
        <ele>197.68823242188</ele>
        <time>2019-02-17T16:41:42Z</time>
      </trkpt>
      <trkpt lat="43.27214" lon="5.63369">
        <ele>196.24633789062</ele>
        <time>2019-02-17T16:41:44Z</time>
      </trkpt>
      <trkpt lat="43.27219" lon="5.63378">
        <ele>196.24633789062</ele>
        <time>2019-02-17T16:41:50Z</time>
      </trkpt>
      <trkpt lat="43.27224" lon="5.63384">
        <ele>192.88171386719</ele>
        <time>2019-02-17T16:41:56Z</time>
      </trkpt>
      <trkpt lat="43.27227" lon="5.63397">
        <ele>189.03637695312</ele>
        <time>2019-02-17T16:42:07Z</time>
      </trkpt>
      <trkpt lat="43.27229" lon="5.63408">
        <ele>188.07507324219</ele>
        <time>2019-02-17T16:42:10Z</time>
      </trkpt>
      <trkpt lat="43.27231" lon="5.63414">
        <ele>186.63317871094</ele>
        <time>2019-02-17T16:42:15Z</time>
      </trkpt>
      <trkpt lat="43.27232" lon="5.63426">
        <ele>183.26843261719</ele>
        <time>2019-02-17T16:42:21Z</time>
      </trkpt>
      <trkpt lat="43.2723" lon="5.63429">
        <ele>182.30712890625</ele>
        <time>2019-02-17T16:42:23Z</time>
      </trkpt>
      <trkpt lat="43.27227" lon="5.63446">
        <ele>179.90380859375</ele>
        <time>2019-02-17T16:42:31Z</time>
      </trkpt>
      <trkpt lat="43.27231" lon="5.63452">
        <ele>178.94262695312</ele>
        <time>2019-02-17T16:42:37Z</time>
      </trkpt>
      <trkpt lat="43.27234" lon="5.63469">
        <ele>176.05859375</ele>
        <time>2019-02-17T16:42:49Z</time>
      </trkpt>
      <trkpt lat="43.27236" lon="5.63479">
        <ele>173.6552734375</ele>
        <time>2019-02-17T16:42:56Z</time>
      </trkpt>
      <trkpt lat="43.27238" lon="5.63483">
        <ele>173.17468261719</ele>
        <time>2019-02-17T16:42:58Z</time>
      </trkpt>
      <trkpt lat="43.27237" lon="5.63488">
        <ele>171.73266601562</ele>
        <time>2019-02-17T16:43:01Z</time>
      </trkpt>
      <trkpt lat="43.27238" lon="5.63499">
        <ele>170.29064941406</ele>
        <time>2019-02-17T16:43:05Z</time>
      </trkpt>
      <trkpt lat="43.27239" lon="5.63512">
        <ele>167.88732910156</ele>
        <time>2019-02-17T16:43:11Z</time>
      </trkpt>
      <trkpt lat="43.2724" lon="5.63513">
        <ele>165.96472167969</ele>
        <time>2019-02-17T16:43:13Z</time>
      </trkpt>
      <trkpt lat="43.27245" lon="5.63527">
        <ele>152.98693847656</ele>
        <time>2019-02-17T16:43:26Z</time>
      </trkpt>
      <trkpt lat="43.27246" lon="5.63535">
        <ele>152.02575683594</ele>
        <time>2019-02-17T16:43:30Z</time>
      </trkpt>
      <trkpt lat="43.27244" lon="5.63547">
        <ele>150.10302734375</ele>
        <time>2019-02-17T16:43:41Z</time>
      </trkpt>
      <trkpt lat="43.27243" lon="5.63548">
        <ele>150.10302734375</ele>
        <time>2019-02-17T16:43:42Z</time>
      </trkpt>
      <trkpt lat="43.27237" lon="5.63546">
        <ele>143.37365722656</ele>
        <time>2019-02-17T16:43:52Z</time>
      </trkpt>
      <trkpt lat="43.27232" lon="5.63541">
        <ele>140.48986816406</ele>
        <time>2019-02-17T16:43:59Z</time>
      </trkpt>
      <trkpt lat="43.27222" lon="5.63536">
        <ele>136.64465332031</ele>
        <time>2019-02-17T16:44:11Z</time>
      </trkpt>
      <trkpt lat="43.27222" lon="5.63535">
        <ele>136.64465332031</ele>
        <time>2019-02-17T16:44:12Z</time>
      </trkpt>
      <trkpt lat="43.27205" lon="5.63527">
        <ele>134.2412109375</ele>
        <time>2019-02-17T16:44:22Z</time>
      </trkpt>
      <trkpt lat="43.27203" lon="5.63527">
        <ele>134.2412109375</ele>
        <time>2019-02-17T16:44:24Z</time>
      </trkpt>
      <trkpt lat="43.27196" lon="5.63531">
        <ele>133.27990722656</ele>
        <time>2019-02-17T16:44:31Z</time>
      </trkpt>
      <trkpt lat="43.27191" lon="5.6354">
        <ele>134.72192382812</ele>
        <time>2019-02-17T16:44:43Z</time>
      </trkpt>
      <trkpt lat="43.27184" lon="5.63552">
        <ele>135.20251464844</ele>
        <time>2019-02-17T16:44:54Z</time>
      </trkpt>
      <trkpt lat="43.27186" lon="5.63559">
        <ele>135.20251464844</ele>
        <time>2019-02-17T16:45:08Z</time>
      </trkpt>
      <trkpt lat="43.27184" lon="5.63564">
        <ele>135.68310546875</ele>
        <time>2019-02-17T16:45:14Z</time>
      </trkpt>
      <trkpt lat="43.27183" lon="5.63573">
        <ele>136.16394042969</ele>
        <time>2019-02-17T16:45:20Z</time>
      </trkpt>
      <trkpt lat="43.27181" lon="5.63594">
        <ele>138.56726074219</ele>
        <time>2019-02-17T16:45:29Z</time>
      </trkpt>
      <trkpt lat="43.27183" lon="5.63611">
        <ele>140.48986816406</ele>
        <time>2019-02-17T16:45:37Z</time>
      </trkpt>
      <trkpt lat="43.27182" lon="5.63613">
        <ele>140.97045898438</ele>
        <time>2019-02-17T16:45:39Z</time>
      </trkpt>
      <trkpt lat="43.2718" lon="5.63623">
        <ele>143.85437011719</ele>
        <time>2019-02-17T16:45:50Z</time>
      </trkpt>
      <trkpt lat="43.27174" lon="5.63638">
        <ele>148.66101074219</ele>
        <time>2019-02-17T16:46:04Z</time>
      </trkpt>
      <trkpt lat="43.27173" lon="5.63645">
        <ele>148.18041992188</ele>
        <time>2019-02-17T16:46:18Z</time>
      </trkpt>
      <trkpt lat="43.27172" lon="5.63648">
        <ele>149.1416015625</ele>
        <time>2019-02-17T16:46:20Z</time>
      </trkpt>
      <trkpt lat="43.27169" lon="5.6367">
        <ele>153.94836425781</ele>
        <time>2019-02-17T16:46:41Z</time>
      </trkpt>
      <trkpt lat="43.27168" lon="5.63689">
        <ele>156.83215332031</ele>
        <time>2019-02-17T16:46:55Z</time>
      </trkpt>
      <trkpt lat="43.27166" lon="5.63707">
        <ele>161.158203125</ele>
        <time>2019-02-17T16:47:08Z</time>
      </trkpt>
      <trkpt lat="43.27169" lon="5.6372">
        <ele>163.08081054688</ele>
        <time>2019-02-17T16:47:16Z</time>
      </trkpt>
      <trkpt lat="43.27173" lon="5.63732">
        <ele>163.08081054688</ele>
        <time>2019-02-17T16:47:20Z</time>
      </trkpt>
      <trkpt lat="43.27179" lon="5.63744">
        <ele>161.158203125</ele>
        <time>2019-02-17T16:47:31Z</time>
      </trkpt>
      <trkpt lat="43.27183" lon="5.63753">
        <ele>157.79357910156</ele>
        <time>2019-02-17T16:47:42Z</time>
      </trkpt>
      <trkpt lat="43.27183" lon="5.63758">
        <ele>157.31286621094</ele>
        <time>2019-02-17T16:47:46Z</time>
      </trkpt>
      <trkpt lat="43.27181" lon="5.6377">
        <ele>154.42895507812</ele>
        <time>2019-02-17T16:47:53Z</time>
      </trkpt>
      <trkpt lat="43.27183" lon="5.63774">
        <ele>154.90954589844</ele>
        <time>2019-02-17T16:47:58Z</time>
      </trkpt>
      <trkpt lat="43.27186" lon="5.6378">
        <ele>154.90954589844</ele>
        <time>2019-02-17T16:48:03Z</time>
      </trkpt>
      <trkpt lat="43.2719" lon="5.63794">
        <ele>156.3515625</ele>
        <time>2019-02-17T16:48:14Z</time>
      </trkpt>
      <trkpt lat="43.27194" lon="5.63801">
        <ele>158.27416992188</ele>
        <time>2019-02-17T16:48:22Z</time>
      </trkpt>
      <trkpt lat="43.27196" lon="5.63806">
        <ele>159.23547363281</ele>
        <time>2019-02-17T16:48:26Z</time>
      </trkpt>
      <trkpt lat="43.27199" lon="5.63821">
        <ele>161.63891601562</ele>
        <time>2019-02-17T16:48:37Z</time>
      </trkpt>
      <trkpt lat="43.27198" lon="5.63826">
        <ele>160.19689941406</ele>
        <time>2019-02-17T16:48:40Z</time>
      </trkpt>
      <trkpt lat="43.27203" lon="5.63829">
        <ele>160.19689941406</ele>
        <time>2019-02-17T16:48:42Z</time>
      </trkpt>
      <trkpt lat="43.27217" lon="5.63832">
        <ele>162.11950683594</ele>
        <time>2019-02-17T16:48:50Z</time>
      </trkpt>
      <trkpt lat="43.27218" lon="5.63833">
        <ele>161.63891601562</ele>
        <time>2019-02-17T16:48:51Z</time>
      </trkpt>
      <trkpt lat="43.27224" lon="5.63838">
        <ele>162.60009765625</ele>
        <time>2019-02-17T16:48:58Z</time>
      </trkpt>
      <trkpt lat="43.27241" lon="5.63848">
        <ele>156.3515625</ele>
        <time>2019-02-17T16:49:16Z</time>
      </trkpt>
      <trkpt lat="43.27244" lon="5.63849">
        <ele>154.42895507812</ele>
        <time>2019-02-17T16:49:18Z</time>
      </trkpt>
      <trkpt lat="43.27248" lon="5.63853">
        <ele>150.10302734375</ele>
        <time>2019-02-17T16:49:24Z</time>
      </trkpt>
      <trkpt lat="43.27256" lon="5.63859">
        <ele>145.77709960938</ele>
        <time>2019-02-17T16:49:34Z</time>
      </trkpt>
      <trkpt lat="43.2726" lon="5.63861">
        <ele>142.41247558594</ele>
        <time>2019-02-17T16:49:38Z</time>
      </trkpt>
      <trkpt lat="43.27263" lon="5.63861">
        <ele>140.48986816406</ele>
        <time>2019-02-17T16:49:41Z</time>
      </trkpt>
      <trkpt lat="43.27274" lon="5.63865">
        <ele>138.08654785156</ele>
        <time>2019-02-17T16:49:52Z</time>
      </trkpt>
      <trkpt lat="43.27285" lon="5.63867">
        <ele>138.08654785156</ele>
        <time>2019-02-17T16:49:59Z</time>
      </trkpt>
      <trkpt lat="43.27288" lon="5.63869">
        <ele>139.0478515625</ele>
        <time>2019-02-17T16:50:03Z</time>
      </trkpt>
      <trkpt lat="43.27298" lon="5.63869">
        <ele>142.89306640625</ele>
        <time>2019-02-17T16:50:13Z</time>
      </trkpt>
      <trkpt lat="43.27304" lon="5.63869">
        <ele>144.81579589844</ele>
        <time>2019-02-17T16:50:17Z</time>
      </trkpt>
      <trkpt lat="43.27314" lon="5.63861">
        <ele>146.2578125</ele>
        <time>2019-02-17T16:50:25Z</time>
      </trkpt>
      <trkpt lat="43.27316" lon="5.63862">
        <ele>144.81579589844</ele>
        <time>2019-02-17T16:50:37Z</time>
      </trkpt>
      <trkpt lat="43.27325" lon="5.6386">
        <ele>146.73840332031</ele>
        <time>2019-02-17T16:50:47Z</time>
      </trkpt>
      <trkpt lat="43.27336" lon="5.6386">
        <ele>147.21899414062</ele>
        <time>2019-02-17T16:50:57Z</time>
      </trkpt>
      <trkpt lat="43.27347" lon="5.63855">
        <ele>148.66101074219</ele>
        <time>2019-02-17T16:51:10Z</time>
      </trkpt>
      <trkpt lat="43.27351" lon="5.63847">
        <ele>148.66101074219</ele>
        <time>2019-02-17T16:51:22Z</time>
      </trkpt>
      <trkpt lat="43.27362" lon="5.63834">
        <ele>144.81579589844</ele>
        <time>2019-02-17T16:51:36Z</time>
      </trkpt>
      <trkpt lat="43.27362" lon="5.63832">
        <ele>144.81579589844</ele>
        <time>2019-02-17T16:51:38Z</time>
      </trkpt>
      <trkpt lat="43.27366" lon="5.63795">
        <ele>135.20251464844</ele>
        <time>2019-02-17T16:51:58Z</time>
      </trkpt>
      <trkpt lat="43.27367" lon="5.63788">
        <ele>135.20251464844</ele>
        <time>2019-02-17T16:52:02Z</time>
      </trkpt>
      <trkpt lat="43.27376" lon="5.63768">
        <ele>133.76049804688</ele>
        <time>2019-02-17T16:52:16Z</time>
      </trkpt>
      <trkpt lat="43.27376" lon="5.6376">
        <ele>133.27990722656</ele>
        <time>2019-02-17T16:52:21Z</time>
      </trkpt>
      <trkpt lat="43.27376" lon="5.63752">
        <ele>130.39599609375</ele>
        <time>2019-02-17T16:52:31Z</time>
      </trkpt>
    </trkseg>
  </trk>
</gpx>